<?xml version="1.0" encoding="UTF-8" standalone="no" ?>
<gpx xmlns="http://www.topografix.com/GPX/1/1" xmlns:xsi="http://www.w3.org/2001/XMLSchema-instance" xsi:schemaLocation="http://www.topografix.com/GPX/1/1 http://www.topografix.com/GPX/1/1/gpx.xsd" version="1.1" creator="VisuGPX - https://www.visugpx.com">
  <metadata>
    <name>marche ivv du 26 janvier 2014</name>
    <desc><![CDATA[marche ivv du 26 janvier 
(retour par le chemin de halage )]]></desc>
  </metadata>
  <trk>
    <name><![CDATA[Tracé 26 janv. 2014 09:51:19]]></name>
    <trkseg>
      <trkpt lat="49.1588" lon="7.02808">
        <ele>251</ele>
        <time>2014-01-26T08:51:31Z</time>
      </trkpt>
      <trkpt lat="49.15874" lon="7.02815">
        <ele>248</ele>
        <time>2014-01-26T08:51:48Z</time>
      </trkpt>
      <trkpt lat="49.15866" lon="7.02812">
        <ele>245</ele>
        <time>2014-01-26T08:51:58Z</time>
      </trkpt>
      <trkpt lat="49.15861" lon="7.028">
        <ele>247</ele>
        <time>2014-01-26T08:52:07Z</time>
      </trkpt>
      <trkpt lat="49.15858" lon="7.02792">
        <ele>246</ele>
        <time>2014-01-26T08:52:15Z</time>
      </trkpt>
      <trkpt lat="49.15858" lon="7.02781">
        <ele>244</ele>
        <time>2014-01-26T08:52:21Z</time>
      </trkpt>
      <trkpt lat="49.15862" lon="7.02772">
        <ele>241</ele>
        <time>2014-01-26T08:52:29Z</time>
      </trkpt>
      <trkpt lat="49.1587" lon="7.02768">
        <ele>243</ele>
        <time>2014-01-26T08:52:33Z</time>
      </trkpt>
      <trkpt lat="49.15878" lon="7.02767">
        <ele>243</ele>
        <time>2014-01-26T08:52:41Z</time>
      </trkpt>
      <trkpt lat="49.15887" lon="7.02769">
        <ele>238</ele>
        <time>2014-01-26T08:52:47Z</time>
      </trkpt>
      <trkpt lat="49.15895" lon="7.02774">
        <ele>234</ele>
        <time>2014-01-26T08:52:56Z</time>
      </trkpt>
      <trkpt lat="49.15903" lon="7.02779">
        <ele>223</ele>
        <time>2014-01-26T08:53:05Z</time>
      </trkpt>
      <trkpt lat="49.15911" lon="7.02781">
        <ele>216</ele>
        <time>2014-01-26T08:53:14Z</time>
      </trkpt>
      <trkpt lat="49.15918" lon="7.02788">
        <ele>210</ele>
        <time>2014-01-26T08:53:22Z</time>
      </trkpt>
      <trkpt lat="49.15927" lon="7.0279">
        <ele>197</ele>
        <time>2014-01-26T08:53:33Z</time>
      </trkpt>
      <trkpt lat="49.15934" lon="7.02794">
        <ele>187</ele>
        <time>2014-01-26T08:53:45Z</time>
      </trkpt>
      <trkpt lat="49.15942" lon="7.02796">
        <ele>185</ele>
        <time>2014-01-26T08:53:50Z</time>
      </trkpt>
      <trkpt lat="49.15949" lon="7.02789">
        <ele>183</ele>
        <time>2014-01-26T08:53:57Z</time>
      </trkpt>
      <trkpt lat="49.15957" lon="7.02778">
        <ele>188</ele>
        <time>2014-01-26T08:54:01Z</time>
      </trkpt>
      <trkpt lat="49.15961" lon="7.02767">
        <ele>191</ele>
        <time>2014-01-26T08:54:06Z</time>
      </trkpt>
      <trkpt lat="49.15965" lon="7.02745">
        <ele>201</ele>
        <time>2014-01-26T08:54:11Z</time>
      </trkpt>
      <trkpt lat="49.15973" lon="7.02733">
        <ele>208</ele>
        <time>2014-01-26T08:54:16Z</time>
      </trkpt>
      <trkpt lat="49.1598" lon="7.02742">
        <ele>204</ele>
        <time>2014-01-26T08:54:21Z</time>
      </trkpt>
      <trkpt lat="49.15985" lon="7.02748">
        <ele>198</ele>
        <time>2014-01-26T08:54:28Z</time>
      </trkpt>
      <trkpt lat="49.15992" lon="7.02751">
        <ele>192</ele>
        <time>2014-01-26T08:54:34Z</time>
      </trkpt>
      <trkpt lat="49.16001" lon="7.02752">
        <ele>187</ele>
        <time>2014-01-26T08:54:43Z</time>
      </trkpt>
      <trkpt lat="49.16008" lon="7.02745">
        <ele>187</ele>
        <time>2014-01-26T08:54:49Z</time>
      </trkpt>
      <trkpt lat="49.16014" lon="7.02736">
        <ele>190</ele>
        <time>2014-01-26T08:54:54Z</time>
      </trkpt>
      <trkpt lat="49.16021" lon="7.02735">
        <ele>192</ele>
        <time>2014-01-26T08:55:00Z</time>
      </trkpt>
      <trkpt lat="49.16029" lon="7.02732">
        <ele>192</ele>
        <time>2014-01-26T08:55:06Z</time>
      </trkpt>
      <trkpt lat="49.16037" lon="7.02725">
        <ele>195</ele>
        <time>2014-01-26T08:55:11Z</time>
      </trkpt>
      <trkpt lat="49.16045" lon="7.02722">
        <ele>195</ele>
        <time>2014-01-26T08:55:18Z</time>
      </trkpt>
      <trkpt lat="49.16049" lon="7.0271">
        <ele>191</ele>
        <time>2014-01-26T08:55:28Z</time>
      </trkpt>
      <trkpt lat="49.16045" lon="7.02694">
        <ele>195</ele>
        <time>2014-01-26T08:55:33Z</time>
      </trkpt>
      <trkpt lat="49.16043" lon="7.02681">
        <ele>196</ele>
        <time>2014-01-26T08:55:37Z</time>
      </trkpt>
      <trkpt lat="49.16046" lon="7.02657">
        <ele>207</ele>
        <time>2014-01-26T08:55:42Z</time>
      </trkpt>
      <trkpt lat="49.16052" lon="7.02638">
        <ele>220</ele>
        <time>2014-01-26T08:55:46Z</time>
      </trkpt>
      <trkpt lat="49.16056" lon="7.02621">
        <ele>229</ele>
        <time>2014-01-26T08:55:51Z</time>
      </trkpt>
      <trkpt lat="49.16052" lon="7.02611">
        <ele>232</ele>
        <time>2014-01-26T08:55:55Z</time>
      </trkpt>
      <trkpt lat="49.16047" lon="7.02602">
        <ele>231</ele>
        <time>2014-01-26T08:56:01Z</time>
      </trkpt>
      <trkpt lat="49.16043" lon="7.0259">
        <ele>235</ele>
        <time>2014-01-26T08:56:08Z</time>
      </trkpt>
      <trkpt lat="49.16043" lon="7.02577">
        <ele>237</ele>
        <time>2014-01-26T08:56:13Z</time>
      </trkpt>
      <trkpt lat="49.1604" lon="7.02565">
        <ele>242</ele>
        <time>2014-01-26T08:56:18Z</time>
      </trkpt>
      <trkpt lat="49.16036" lon="7.02553">
        <ele>244</ele>
        <time>2014-01-26T08:56:24Z</time>
      </trkpt>
      <trkpt lat="49.16034" lon="7.02541">
        <ele>244</ele>
        <time>2014-01-26T08:56:33Z</time>
      </trkpt>
      <trkpt lat="49.16029" lon="7.02531">
        <ele>245</ele>
        <time>2014-01-26T08:56:37Z</time>
      </trkpt>
      <trkpt lat="49.16024" lon="7.0252">
        <ele>248</ele>
        <time>2014-01-26T08:56:44Z</time>
      </trkpt>
      <trkpt lat="49.16023" lon="7.02507">
        <ele>249</ele>
        <time>2014-01-26T08:56:51Z</time>
      </trkpt>
      <trkpt lat="49.16019" lon="7.02495">
        <ele>250</ele>
        <time>2014-01-26T08:56:58Z</time>
      </trkpt>
      <trkpt lat="49.16011" lon="7.02494">
        <ele>249</ele>
        <time>2014-01-26T08:57:06Z</time>
      </trkpt>
      <trkpt lat="49.16002" lon="7.02497">
        <ele>243</ele>
        <time>2014-01-26T08:57:16Z</time>
      </trkpt>
      <trkpt lat="49.15994" lon="7.02497">
        <ele>242</ele>
        <time>2014-01-26T08:57:23Z</time>
      </trkpt>
      <trkpt lat="49.15986" lon="7.02499">
        <ele>240</ele>
        <time>2014-01-26T08:57:32Z</time>
      </trkpt>
      <trkpt lat="49.15977" lon="7.02502">
        <ele>233</ele>
        <time>2014-01-26T08:57:44Z</time>
      </trkpt>
      <trkpt lat="49.15969" lon="7.02502">
        <ele>231</ele>
        <time>2014-01-26T08:57:53Z</time>
      </trkpt>
      <trkpt lat="49.1596" lon="7.02504">
        <ele>219</ele>
        <time>2014-01-26T08:58:09Z</time>
      </trkpt>
      <trkpt lat="49.15952" lon="7.02507">
        <ele>216</ele>
        <time>2014-01-26T08:58:18Z</time>
      </trkpt>
      <trkpt lat="49.15944" lon="7.02508">
        <ele>216</ele>
        <time>2014-01-26T08:58:24Z</time>
      </trkpt>
      <trkpt lat="49.15935" lon="7.02507">
        <ele>220</ele>
        <time>2014-01-26T08:58:30Z</time>
      </trkpt>
      <trkpt lat="49.15928" lon="7.02505">
        <ele>216</ele>
        <time>2014-01-26T08:58:39Z</time>
      </trkpt>
      <trkpt lat="49.1592" lon="7.02509">
        <ele>216</ele>
        <time>2014-01-26T08:58:45Z</time>
      </trkpt>
      <trkpt lat="49.15913" lon="7.02511">
        <ele>219</ele>
        <time>2014-01-26T08:58:51Z</time>
      </trkpt>
      <trkpt lat="49.15905" lon="7.0251">
        <ele>223</ele>
        <time>2014-01-26T08:58:55Z</time>
      </trkpt>
      <trkpt lat="49.159" lon="7.02518">
        <ele>223</ele>
        <time>2014-01-26T08:59:00Z</time>
      </trkpt>
      <trkpt lat="49.15892" lon="7.02523">
        <ele>224</ele>
        <time>2014-01-26T08:59:06Z</time>
      </trkpt>
      <trkpt lat="49.15885" lon="7.02524">
        <ele>228</ele>
        <time>2014-01-26T08:59:10Z</time>
      </trkpt>
      <trkpt lat="49.15876" lon="7.02528">
        <ele>231</ele>
        <time>2014-01-26T08:59:15Z</time>
      </trkpt>
      <trkpt lat="49.1587" lon="7.02537">
        <ele>229</ele>
        <time>2014-01-26T08:59:21Z</time>
      </trkpt>
      <trkpt lat="49.15868" lon="7.02549">
        <ele>222</ele>
        <time>2014-01-26T08:59:27Z</time>
      </trkpt>
      <trkpt lat="49.1586" lon="7.02553">
        <ele>225</ele>
        <time>2014-01-26T08:59:35Z</time>
      </trkpt>
      <trkpt lat="49.15851" lon="7.02556">
        <ele>230</ele>
        <time>2014-01-26T08:59:41Z</time>
      </trkpt>
      <trkpt lat="49.1584" lon="7.02556">
        <ele>234</ele>
        <time>2014-01-26T08:59:46Z</time>
      </trkpt>
      <trkpt lat="49.15834" lon="7.02565">
        <ele>234</ele>
        <time>2014-01-26T08:59:50Z</time>
      </trkpt>
      <trkpt lat="49.15828" lon="7.02575">
        <ele>232</ele>
        <time>2014-01-26T08:59:56Z</time>
      </trkpt>
      <trkpt lat="49.15821" lon="7.02581">
        <ele>234</ele>
        <time>2014-01-26T09:00:02Z</time>
      </trkpt>
      <trkpt lat="49.15814" lon="7.02586">
        <ele>235</ele>
        <time>2014-01-26T09:00:07Z</time>
      </trkpt>
      <trkpt lat="49.15805" lon="7.02587">
        <ele>241</ele>
        <time>2014-01-26T09:00:11Z</time>
      </trkpt>
      <trkpt lat="49.15798" lon="7.02599">
        <ele>244</ele>
        <time>2014-01-26T09:00:16Z</time>
      </trkpt>
      <trkpt lat="49.15792" lon="7.02605">
        <ele>244</ele>
        <time>2014-01-26T09:00:23Z</time>
      </trkpt>
      <trkpt lat="49.15783" lon="7.02606">
        <ele>249</ele>
        <time>2014-01-26T09:00:27Z</time>
      </trkpt>
      <trkpt lat="49.15774" lon="7.02607">
        <ele>253</ele>
        <time>2014-01-26T09:00:35Z</time>
      </trkpt>
      <trkpt lat="49.15765" lon="7.02607">
        <ele>255</ele>
        <time>2014-01-26T09:00:41Z</time>
      </trkpt>
      <trkpt lat="49.15764" lon="7.0262">
        <ele>249</ele>
        <time>2014-01-26T09:00:50Z</time>
      </trkpt>
      <trkpt lat="49.1576" lon="7.02632">
        <ele>246</ele>
        <time>2014-01-26T09:00:58Z</time>
      </trkpt>
      <trkpt lat="49.15752" lon="7.02636">
        <ele>245</ele>
        <time>2014-01-26T09:01:05Z</time>
      </trkpt>
      <trkpt lat="49.15744" lon="7.02634">
        <ele>246</ele>
        <time>2014-01-26T09:01:14Z</time>
      </trkpt>
      <trkpt lat="49.15736" lon="7.02633">
        <ele>247</ele>
        <time>2014-01-26T09:01:22Z</time>
      </trkpt>
      <trkpt lat="49.15728" lon="7.02638">
        <ele>250</ele>
        <time>2014-01-26T09:01:27Z</time>
      </trkpt>
      <trkpt lat="49.15721" lon="7.02637">
        <ele>247</ele>
        <time>2014-01-26T09:01:35Z</time>
      </trkpt>
      <trkpt lat="49.15714" lon="7.02636">
        <ele>254</ele>
        <time>2014-01-26T09:01:39Z</time>
      </trkpt>
      <trkpt lat="49.15706" lon="7.02638">
        <ele>257</ele>
        <time>2014-01-26T09:01:46Z</time>
      </trkpt>
      <trkpt lat="49.15697" lon="7.02641">
        <ele>257</ele>
        <time>2014-01-26T09:01:53Z</time>
      </trkpt>
      <trkpt lat="49.15691" lon="7.0265">
        <ele>252</ele>
        <time>2014-01-26T09:02:01Z</time>
      </trkpt>
      <trkpt lat="49.15684" lon="7.02655">
        <ele>251</ele>
        <time>2014-01-26T09:02:08Z</time>
      </trkpt>
      <trkpt lat="49.15675" lon="7.02656">
        <ele>252</ele>
        <time>2014-01-26T09:02:13Z</time>
      </trkpt>
      <trkpt lat="49.15667" lon="7.02661">
        <ele>246</ele>
        <time>2014-01-26T09:02:23Z</time>
      </trkpt>
      <trkpt lat="49.15659" lon="7.02662">
        <ele>248</ele>
        <time>2014-01-26T09:02:28Z</time>
      </trkpt>
      <trkpt lat="49.1565" lon="7.02663">
        <ele>249</ele>
        <time>2014-01-26T09:02:33Z</time>
      </trkpt>
      <trkpt lat="49.15642" lon="7.02663">
        <ele>248</ele>
        <time>2014-01-26T09:02:40Z</time>
      </trkpt>
      <trkpt lat="49.15634" lon="7.02663">
        <ele>248</ele>
        <time>2014-01-26T09:02:46Z</time>
      </trkpt>
      <trkpt lat="49.15625" lon="7.02662">
        <ele>248</ele>
        <time>2014-01-26T09:02:53Z</time>
      </trkpt>
      <trkpt lat="49.15615" lon="7.02665">
        <ele>252</ele>
        <time>2014-01-26T09:02:58Z</time>
      </trkpt>
      <trkpt lat="49.15609" lon="7.02669">
        <ele>254</ele>
        <time>2014-01-26T09:03:02Z</time>
      </trkpt>
      <trkpt lat="49.15599" lon="7.02672">
        <ele>261</ele>
        <time>2014-01-26T09:03:07Z</time>
      </trkpt>
      <trkpt lat="49.15591" lon="7.02676">
        <ele>261</ele>
        <time>2014-01-26T09:03:16Z</time>
      </trkpt>
      <trkpt lat="49.15588" lon="7.02687">
        <ele>251</ele>
        <time>2014-01-26T09:03:27Z</time>
      </trkpt>
      <trkpt lat="49.15579" lon="7.02694">
        <ele>248</ele>
        <time>2014-01-26T09:03:32Z</time>
      </trkpt>
      <trkpt lat="49.15572" lon="7.02687">
        <ele>251</ele>
        <time>2014-01-26T09:03:44Z</time>
      </trkpt>
      <trkpt lat="49.15568" lon="7.02677">
        <ele>252</ele>
        <time>2014-01-26T09:03:51Z</time>
      </trkpt>
      <trkpt lat="49.15565" lon="7.02665">
        <ele>252</ele>
        <time>2014-01-26T09:03:57Z</time>
      </trkpt>
      <trkpt lat="49.15562" lon="7.02652">
        <ele>251</ele>
        <time>2014-01-26T09:04:06Z</time>
      </trkpt>
      <trkpt lat="49.15561" lon="7.02641">
        <ele>250</ele>
        <time>2014-01-26T09:04:13Z</time>
      </trkpt>
      <trkpt lat="49.15559" lon="7.0263">
        <ele>250</ele>
        <time>2014-01-26T09:04:18Z</time>
      </trkpt>
      <trkpt lat="49.15555" lon="7.02619">
        <ele>250</ele>
        <time>2014-01-26T09:04:24Z</time>
      </trkpt>
      <trkpt lat="49.15552" lon="7.02607">
        <ele>253</ele>
        <time>2014-01-26T09:04:30Z</time>
      </trkpt>
      <trkpt lat="49.15548" lon="7.02595">
        <ele>253</ele>
        <time>2014-01-26T09:04:36Z</time>
      </trkpt>
      <trkpt lat="49.15545" lon="7.02582">
        <ele>253</ele>
        <time>2014-01-26T09:04:44Z</time>
      </trkpt>
      <trkpt lat="49.15543" lon="7.0257">
        <ele>254</ele>
        <time>2014-01-26T09:04:50Z</time>
      </trkpt>
      <trkpt lat="49.1554" lon="7.02557">
        <ele>257</ele>
        <time>2014-01-26T09:04:56Z</time>
      </trkpt>
      <trkpt lat="49.15536" lon="7.02546">
        <ele>257</ele>
        <time>2014-01-26T09:05:04Z</time>
      </trkpt>
      <trkpt lat="49.15531" lon="7.02537">
        <ele>256</ele>
        <time>2014-01-26T09:05:09Z</time>
      </trkpt>
      <trkpt lat="49.15527" lon="7.02525">
        <ele>255</ele>
        <time>2014-01-26T09:05:15Z</time>
      </trkpt>
      <trkpt lat="49.15525" lon="7.02515">
        <ele>257</ele>
        <time>2014-01-26T09:05:20Z</time>
      </trkpt>
      <trkpt lat="49.15521" lon="7.02503">
        <ele>258</ele>
        <time>2014-01-26T09:05:28Z</time>
      </trkpt>
      <trkpt lat="49.15517" lon="7.02492">
        <ele>253</ele>
        <time>2014-01-26T09:05:36Z</time>
      </trkpt>
      <trkpt lat="49.15515" lon="7.0248">
        <ele>254</ele>
        <time>2014-01-26T09:05:43Z</time>
      </trkpt>
      <trkpt lat="49.15513" lon="7.02467">
        <ele>256</ele>
        <time>2014-01-26T09:05:49Z</time>
      </trkpt>
      <trkpt lat="49.15516" lon="7.02456">
        <ele>251</ele>
        <time>2014-01-26T09:05:58Z</time>
      </trkpt>
      <trkpt lat="49.1552" lon="7.02445">
        <ele>251</ele>
        <time>2014-01-26T09:06:05Z</time>
      </trkpt>
      <trkpt lat="49.15523" lon="7.02434">
        <ele>250</ele>
        <time>2014-01-26T09:06:13Z</time>
      </trkpt>
      <trkpt lat="49.15527" lon="7.02423">
        <ele>252</ele>
        <time>2014-01-26T09:06:18Z</time>
      </trkpt>
      <trkpt lat="49.15529" lon="7.02413">
        <ele>253</ele>
        <time>2014-01-26T09:06:23Z</time>
      </trkpt>
      <trkpt lat="49.1553" lon="7.02401">
        <ele>248</ele>
        <time>2014-01-26T09:06:34Z</time>
      </trkpt>
      <trkpt lat="49.15533" lon="7.0239">
        <ele>249</ele>
        <time>2014-01-26T09:06:39Z</time>
      </trkpt>
      <trkpt lat="49.15537" lon="7.02378">
        <ele>249</ele>
        <time>2014-01-26T09:06:45Z</time>
      </trkpt>
      <trkpt lat="49.15541" lon="7.02367">
        <ele>246</ele>
        <time>2014-01-26T09:06:53Z</time>
      </trkpt>
      <trkpt lat="49.15543" lon="7.02354">
        <ele>244</ele>
        <time>2014-01-26T09:07:03Z</time>
      </trkpt>
      <trkpt lat="49.15546" lon="7.02342">
        <ele>243</ele>
        <time>2014-01-26T09:07:10Z</time>
      </trkpt>
      <trkpt lat="49.15551" lon="7.02333">
        <ele>245</ele>
        <time>2014-01-26T09:07:15Z</time>
      </trkpt>
      <trkpt lat="49.15553" lon="7.02322">
        <ele>246</ele>
        <time>2014-01-26T09:07:22Z</time>
      </trkpt>
      <trkpt lat="49.15553" lon="7.02309">
        <ele>250</ele>
        <time>2014-01-26T09:07:28Z</time>
      </trkpt>
      <trkpt lat="49.15554" lon="7.02297">
        <ele>252</ele>
        <time>2014-01-26T09:07:34Z</time>
      </trkpt>
      <trkpt lat="49.15553" lon="7.02285">
        <ele>252</ele>
        <time>2014-01-26T09:07:40Z</time>
      </trkpt>
      <trkpt lat="49.1555" lon="7.02272">
        <ele>251</ele>
        <time>2014-01-26T09:07:48Z</time>
      </trkpt>
      <trkpt lat="49.1555" lon="7.0226">
        <ele>254</ele>
        <time>2014-01-26T09:07:54Z</time>
      </trkpt>
      <trkpt lat="49.15547" lon="7.02247">
        <ele>251</ele>
        <time>2014-01-26T09:08:04Z</time>
      </trkpt>
      <trkpt lat="49.15545" lon="7.02234">
        <ele>254</ele>
        <time>2014-01-26T09:08:10Z</time>
      </trkpt>
      <trkpt lat="49.15542" lon="7.02222">
        <ele>255</ele>
        <time>2014-01-26T09:08:16Z</time>
      </trkpt>
      <trkpt lat="49.15537" lon="7.02212">
        <ele>256</ele>
        <time>2014-01-26T09:08:24Z</time>
      </trkpt>
      <trkpt lat="49.1553" lon="7.02208">
        <ele>258</ele>
        <time>2014-01-26T09:08:29Z</time>
      </trkpt>
      <trkpt lat="49.15521" lon="7.02208">
        <ele>258</ele>
        <time>2014-01-26T09:08:36Z</time>
      </trkpt>
      <trkpt lat="49.15513" lon="7.02209">
        <ele>258</ele>
        <time>2014-01-26T09:08:43Z</time>
      </trkpt>
      <trkpt lat="49.15506" lon="7.02214">
        <ele>250</ele>
        <time>2014-01-26T09:08:54Z</time>
      </trkpt>
      <trkpt lat="49.15498" lon="7.02214">
        <ele>249</ele>
        <time>2014-01-26T09:09:02Z</time>
      </trkpt>
      <trkpt lat="49.1549" lon="7.02214">
        <ele>249</ele>
        <time>2014-01-26T09:09:09Z</time>
      </trkpt>
      <trkpt lat="49.15482" lon="7.02216">
        <ele>245</ele>
        <time>2014-01-26T09:09:18Z</time>
      </trkpt>
      <trkpt lat="49.15474" lon="7.02215">
        <ele>242</ele>
        <time>2014-01-26T09:09:27Z</time>
      </trkpt>
      <trkpt lat="49.15465" lon="7.02217">
        <ele>246</ele>
        <time>2014-01-26T09:09:33Z</time>
      </trkpt>
      <trkpt lat="49.15457" lon="7.02218">
        <ele>248</ele>
        <time>2014-01-26T09:09:38Z</time>
      </trkpt>
      <trkpt lat="49.15454" lon="7.02227">
        <ele>250</ele>
        <time>2014-01-26T09:09:43Z</time>
      </trkpt>
      <trkpt lat="49.15451" lon="7.02241">
        <ele>256</ele>
        <time>2014-01-26T09:09:47Z</time>
      </trkpt>
      <trkpt lat="49.15445" lon="7.02253">
        <ele>257</ele>
        <time>2014-01-26T09:09:51Z</time>
      </trkpt>
      <trkpt lat="49.15444" lon="7.02265">
        <ele>257</ele>
        <time>2014-01-26T09:09:59Z</time>
      </trkpt>
      <trkpt lat="49.15443" lon="7.02277">
        <ele>257</ele>
        <time>2014-01-26T09:10:06Z</time>
      </trkpt>
      <trkpt lat="49.15441" lon="7.0229">
        <ele>258</ele>
        <time>2014-01-26T09:10:13Z</time>
      </trkpt>
      <trkpt lat="49.1544" lon="7.02302">
        <ele>249</ele>
        <time>2014-01-26T09:10:25Z</time>
      </trkpt>
      <trkpt lat="49.15442" lon="7.02311">
        <ele>245</ele>
        <time>2014-01-26T09:10:34Z</time>
      </trkpt>
      <trkpt lat="49.15446" lon="7.02322">
        <ele>248</ele>
        <time>2014-01-26T09:10:38Z</time>
      </trkpt>
      <trkpt lat="49.15446" lon="7.02335">
        <ele>245</ele>
        <time>2014-01-26T09:10:46Z</time>
      </trkpt>
      <trkpt lat="49.15444" lon="7.02347">
        <ele>247</ele>
        <time>2014-01-26T09:10:51Z</time>
      </trkpt>
      <trkpt lat="49.1544" lon="7.0236">
        <ele>247</ele>
        <time>2014-01-26T09:10:57Z</time>
      </trkpt>
      <trkpt lat="49.15433" lon="7.02365">
        <ele>247</ele>
        <time>2014-01-26T09:11:04Z</time>
      </trkpt>
      <trkpt lat="49.15425" lon="7.02371">
        <ele>249</ele>
        <time>2014-01-26T09:11:12Z</time>
      </trkpt>
      <trkpt lat="49.15417" lon="7.02373">
        <ele>251</ele>
        <time>2014-01-26T09:11:18Z</time>
      </trkpt>
      <trkpt lat="49.15408" lon="7.02376">
        <ele>251</ele>
        <time>2014-01-26T09:11:24Z</time>
      </trkpt>
      <trkpt lat="49.15399" lon="7.02378">
        <ele>252</ele>
        <time>2014-01-26T09:11:30Z</time>
      </trkpt>
      <trkpt lat="49.15391" lon="7.02379">
        <ele>254</ele>
        <time>2014-01-26T09:11:36Z</time>
      </trkpt>
      <trkpt lat="49.15383" lon="7.02384">
        <ele>254</ele>
        <time>2014-01-26T09:11:43Z</time>
      </trkpt>
      <trkpt lat="49.15375" lon="7.02389">
        <ele>252</ele>
        <time>2014-01-26T09:11:51Z</time>
      </trkpt>
      <trkpt lat="49.15368" lon="7.02388">
        <ele>252</ele>
        <time>2014-01-26T09:11:57Z</time>
      </trkpt>
      <trkpt lat="49.1536" lon="7.02391">
        <ele>254</ele>
        <time>2014-01-26T09:12:02Z</time>
      </trkpt>
      <trkpt lat="49.15353" lon="7.02395">
        <ele>251</ele>
        <time>2014-01-26T09:12:10Z</time>
      </trkpt>
      <trkpt lat="49.15344" lon="7.02398">
        <ele>251</ele>
        <time>2014-01-26T09:12:16Z</time>
      </trkpt>
      <trkpt lat="49.15336" lon="7.02404">
        <ele>245</ele>
        <time>2014-01-26T09:12:25Z</time>
      </trkpt>
      <trkpt lat="49.15328" lon="7.02406">
        <ele>245</ele>
        <time>2014-01-26T09:12:31Z</time>
      </trkpt>
      <trkpt lat="49.15321" lon="7.02408">
        <ele>244</ele>
        <time>2014-01-26T09:12:37Z</time>
      </trkpt>
      <trkpt lat="49.15312" lon="7.0241">
        <ele>244</ele>
        <time>2014-01-26T09:12:43Z</time>
      </trkpt>
      <trkpt lat="49.15304" lon="7.02411">
        <ele>242</ele>
        <time>2014-01-26T09:12:50Z</time>
      </trkpt>
      <trkpt lat="49.15296" lon="7.02407">
        <ele>243</ele>
        <time>2014-01-26T09:12:56Z</time>
      </trkpt>
      <trkpt lat="49.15288" lon="7.024">
        <ele>246</ele>
        <time>2014-01-26T09:13:01Z</time>
      </trkpt>
      <trkpt lat="49.15282" lon="7.02393">
        <ele>245</ele>
        <time>2014-01-26T09:13:07Z</time>
      </trkpt>
      <trkpt lat="49.15274" lon="7.02386">
        <ele>239</ele>
        <time>2014-01-26T09:13:19Z</time>
      </trkpt>
      <trkpt lat="49.15268" lon="7.02378">
        <ele>238</ele>
        <time>2014-01-26T09:13:27Z</time>
      </trkpt>
      <trkpt lat="49.1526" lon="7.02372">
        <ele>239</ele>
        <time>2014-01-26T09:13:33Z</time>
      </trkpt>
      <trkpt lat="49.15253" lon="7.02367">
        <ele>241</ele>
        <time>2014-01-26T09:13:39Z</time>
      </trkpt>
      <trkpt lat="49.15245" lon="7.02362">
        <ele>242</ele>
        <time>2014-01-26T09:13:45Z</time>
      </trkpt>
      <trkpt lat="49.15237" lon="7.02359">
        <ele>240</ele>
        <time>2014-01-26T09:13:52Z</time>
      </trkpt>
      <trkpt lat="49.15229" lon="7.02355">
        <ele>234</ele>
        <time>2014-01-26T09:14:02Z</time>
      </trkpt>
      <trkpt lat="49.15222" lon="7.02354">
        <ele>235</ele>
        <time>2014-01-26T09:14:07Z</time>
      </trkpt>
      <trkpt lat="49.15215" lon="7.02352">
        <ele>239</ele>
        <time>2014-01-26T09:14:11Z</time>
      </trkpt>
      <trkpt lat="49.15207" lon="7.0235">
        <ele>237</ele>
        <time>2014-01-26T09:14:18Z</time>
      </trkpt>
      <trkpt lat="49.15199" lon="7.02352">
        <ele>234</ele>
        <time>2014-01-26T09:14:27Z</time>
      </trkpt>
      <trkpt lat="49.15192" lon="7.02352">
        <ele>231</ele>
        <time>2014-01-26T09:14:35Z</time>
      </trkpt>
      <trkpt lat="49.15184" lon="7.02356">
        <ele>230</ele>
        <time>2014-01-26T09:14:41Z</time>
      </trkpt>
      <trkpt lat="49.15177" lon="7.02359">
        <ele>233</ele>
        <time>2014-01-26T09:14:46Z</time>
      </trkpt>
      <trkpt lat="49.15169" lon="7.02364">
        <ele>235</ele>
        <time>2014-01-26T09:14:52Z</time>
      </trkpt>
      <trkpt lat="49.15161" lon="7.02371">
        <ele>236</ele>
        <time>2014-01-26T09:14:59Z</time>
      </trkpt>
      <trkpt lat="49.15152" lon="7.02374">
        <ele>243</ele>
        <time>2014-01-26T09:15:04Z</time>
      </trkpt>
      <trkpt lat="49.15145" lon="7.02381">
        <ele>242</ele>
        <time>2014-01-26T09:15:10Z</time>
      </trkpt>
      <trkpt lat="49.15137" lon="7.02388">
        <ele>243</ele>
        <time>2014-01-26T09:15:16Z</time>
      </trkpt>
      <trkpt lat="49.15129" lon="7.02392">
        <ele>238</ele>
        <time>2014-01-26T09:15:26Z</time>
      </trkpt>
      <trkpt lat="49.15121" lon="7.02396">
        <ele>236</ele>
        <time>2014-01-26T09:15:35Z</time>
      </trkpt>
      <trkpt lat="49.15114" lon="7.02401">
        <ele>241</ele>
        <time>2014-01-26T09:15:40Z</time>
      </trkpt>
      <trkpt lat="49.15108" lon="7.0241">
        <ele>243</ele>
        <time>2014-01-26T09:15:46Z</time>
      </trkpt>
      <trkpt lat="49.15101" lon="7.02417">
        <ele>242</ele>
        <time>2014-01-26T09:15:52Z</time>
      </trkpt>
      <trkpt lat="49.15094" lon="7.02422">
        <ele>246</ele>
        <time>2014-01-26T09:15:57Z</time>
      </trkpt>
      <trkpt lat="49.15087" lon="7.02429">
        <ele>249</ele>
        <time>2014-01-26T09:16:02Z</time>
      </trkpt>
      <trkpt lat="49.1508" lon="7.02436">
        <ele>249</ele>
        <time>2014-01-26T09:16:07Z</time>
      </trkpt>
      <trkpt lat="49.15073" lon="7.02443">
        <ele>251</ele>
        <time>2014-01-26T09:16:13Z</time>
      </trkpt>
      <trkpt lat="49.15065" lon="7.02449">
        <ele>249</ele>
        <time>2014-01-26T09:16:23Z</time>
      </trkpt>
      <trkpt lat="49.15059" lon="7.0246">
        <ele>249</ele>
        <time>2014-01-26T09:16:29Z</time>
      </trkpt>
      <trkpt lat="49.15058" lon="7.02471">
        <ele>246</ele>
        <time>2014-01-26T09:16:39Z</time>
      </trkpt>
      <trkpt lat="49.15058" lon="7.02484">
        <ele>248</ele>
        <time>2014-01-26T09:16:43Z</time>
      </trkpt>
      <trkpt lat="49.15058" lon="7.02498">
        <ele>249</ele>
        <time>2014-01-26T09:16:50Z</time>
      </trkpt>
      <trkpt lat="49.15058" lon="7.0251">
        <ele>249</ele>
        <time>2014-01-26T09:16:55Z</time>
      </trkpt>
      <trkpt lat="49.15059" lon="7.02523">
        <ele>250</ele>
        <time>2014-01-26T09:17:01Z</time>
      </trkpt>
      <trkpt lat="49.15061" lon="7.02535">
        <ele>249</ele>
        <time>2014-01-26T09:17:08Z</time>
      </trkpt>
      <trkpt lat="49.15061" lon="7.02548">
        <ele>251</ele>
        <time>2014-01-26T09:17:13Z</time>
      </trkpt>
      <trkpt lat="49.15062" lon="7.0256">
        <ele>252</ele>
        <time>2014-01-26T09:17:19Z</time>
      </trkpt>
      <trkpt lat="49.15063" lon="7.02573">
        <ele>250</ele>
        <time>2014-01-26T09:17:27Z</time>
      </trkpt>
      <trkpt lat="49.15064" lon="7.02586">
        <ele>249</ele>
        <time>2014-01-26T09:17:34Z</time>
      </trkpt>
      <trkpt lat="49.15064" lon="7.026">
        <ele>249</ele>
        <time>2014-01-26T09:17:40Z</time>
      </trkpt>
      <trkpt lat="49.15065" lon="7.02611">
        <ele>248</ele>
        <time>2014-01-26T09:17:45Z</time>
      </trkpt>
      <trkpt lat="49.15067" lon="7.02623">
        <ele>249</ele>
        <time>2014-01-26T09:17:51Z</time>
      </trkpt>
      <trkpt lat="49.15068" lon="7.02635">
        <ele>248</ele>
        <time>2014-01-26T09:17:56Z</time>
      </trkpt>
      <trkpt lat="49.15069" lon="7.02648">
        <ele>249</ele>
        <time>2014-01-26T09:18:02Z</time>
      </trkpt>
      <trkpt lat="49.15071" lon="7.02662">
        <ele>252</ele>
        <time>2014-01-26T09:18:06Z</time>
      </trkpt>
      <trkpt lat="49.15073" lon="7.02674">
        <ele>254</ele>
        <time>2014-01-26T09:18:10Z</time>
      </trkpt>
      <trkpt lat="49.15079" lon="7.02684">
        <ele>255</ele>
        <time>2014-01-26T09:18:16Z</time>
      </trkpt>
      <trkpt lat="49.15083" lon="7.02696">
        <ele>253</ele>
        <time>2014-01-26T09:18:23Z</time>
      </trkpt>
      <trkpt lat="49.15088" lon="7.02707">
        <ele>252</ele>
        <time>2014-01-26T09:18:30Z</time>
      </trkpt>
      <trkpt lat="49.15094" lon="7.02716">
        <ele>248</ele>
        <time>2014-01-26T09:18:39Z</time>
      </trkpt>
      <trkpt lat="49.1509" lon="7.02727">
        <ele>247</ele>
        <time>2014-01-26T09:18:48Z</time>
      </trkpt>
      <trkpt lat="49.15082" lon="7.02731">
        <ele>244</ele>
        <time>2014-01-26T09:18:57Z</time>
      </trkpt>
      <trkpt lat="49.15074" lon="7.02734">
        <ele>244</ele>
        <time>2014-01-26T09:19:04Z</time>
      </trkpt>
      <trkpt lat="49.15068" lon="7.0274">
        <ele>243</ele>
        <time>2014-01-26T09:19:11Z</time>
      </trkpt>
      <trkpt lat="49.1506" lon="7.02746">
        <ele>246</ele>
        <time>2014-01-26T09:19:16Z</time>
      </trkpt>
      <trkpt lat="49.15054" lon="7.02756">
        <ele>247</ele>
        <time>2014-01-26T09:19:22Z</time>
      </trkpt>
      <trkpt lat="49.15048" lon="7.02765">
        <ele>247</ele>
        <time>2014-01-26T09:19:27Z</time>
      </trkpt>
      <trkpt lat="49.15043" lon="7.02774">
        <ele>249</ele>
        <time>2014-01-26T09:19:32Z</time>
      </trkpt>
      <trkpt lat="49.15037" lon="7.02783">
        <ele>249</ele>
        <time>2014-01-26T09:19:38Z</time>
      </trkpt>
      <trkpt lat="49.15033" lon="7.02793">
        <ele>251</ele>
        <time>2014-01-26T09:19:43Z</time>
      </trkpt>
      <trkpt lat="49.15027" lon="7.02803">
        <ele>251</ele>
        <time>2014-01-26T09:19:50Z</time>
      </trkpt>
      <trkpt lat="49.15022" lon="7.02813">
        <ele>252</ele>
        <time>2014-01-26T09:19:56Z</time>
      </trkpt>
      <trkpt lat="49.15017" lon="7.02824">
        <ele>253</ele>
        <time>2014-01-26T09:20:01Z</time>
      </trkpt>
      <trkpt lat="49.15012" lon="7.02833">
        <ele>253</ele>
        <time>2014-01-26T09:20:08Z</time>
      </trkpt>
      <trkpt lat="49.15007" lon="7.02843">
        <ele>252</ele>
        <time>2014-01-26T09:20:14Z</time>
      </trkpt>
      <trkpt lat="49.15002" lon="7.02855">
        <ele>252</ele>
        <time>2014-01-26T09:20:23Z</time>
      </trkpt>
      <trkpt lat="49.15001" lon="7.02867">
        <ele>252</ele>
        <time>2014-01-26T09:20:28Z</time>
      </trkpt>
      <trkpt lat="49.15006" lon="7.02878">
        <ele>251</ele>
        <time>2014-01-26T09:20:37Z</time>
      </trkpt>
      <trkpt lat="49.15011" lon="7.02889">
        <ele>249</ele>
        <time>2014-01-26T09:20:44Z</time>
      </trkpt>
      <trkpt lat="49.15016" lon="7.02901">
        <ele>244</ele>
        <time>2014-01-26T09:20:53Z</time>
      </trkpt>
      <trkpt lat="49.15021" lon="7.02909">
        <ele>241</ele>
        <time>2014-01-26T09:21:01Z</time>
      </trkpt>
      <trkpt lat="49.15027" lon="7.0292">
        <ele>239</ele>
        <time>2014-01-26T09:21:10Z</time>
      </trkpt>
      <trkpt lat="49.15034" lon="7.02926">
        <ele>239</ele>
        <time>2014-01-26T09:21:15Z</time>
      </trkpt>
      <trkpt lat="49.15042" lon="7.02931">
        <ele>242</ele>
        <time>2014-01-26T09:21:21Z</time>
      </trkpt>
      <trkpt lat="49.15048" lon="7.0294">
        <ele>239</ele>
        <time>2014-01-26T09:21:28Z</time>
      </trkpt>
      <trkpt lat="49.15057" lon="7.02945">
        <ele>240</ele>
        <time>2014-01-26T09:21:34Z</time>
      </trkpt>
      <trkpt lat="49.15064" lon="7.02951">
        <ele>240</ele>
        <time>2014-01-26T09:21:40Z</time>
      </trkpt>
      <trkpt lat="49.15072" lon="7.02956">
        <ele>235</ele>
        <time>2014-01-26T09:21:51Z</time>
      </trkpt>
      <trkpt lat="49.15079" lon="7.02949">
        <ele>236</ele>
        <time>2014-01-26T09:21:57Z</time>
      </trkpt>
      <trkpt lat="49.15082" lon="7.02936">
        <ele>220</ele>
        <time>2014-01-26T09:22:09Z</time>
      </trkpt>
      <trkpt lat="49.15088" lon="7.02929">
        <ele>216</ele>
        <time>2014-01-26T09:22:17Z</time>
      </trkpt>
      <trkpt lat="49.15094" lon="7.02918">
        <ele>207</ele>
        <time>2014-01-26T09:22:28Z</time>
      </trkpt>
      <trkpt lat="49.15097" lon="7.02907">
        <ele>193</ele>
        <time>2014-01-26T09:22:41Z</time>
      </trkpt>
      <trkpt lat="49.15105" lon="7.02902">
        <ele>194</ele>
        <time>2014-01-26T09:22:53Z</time>
      </trkpt>
      <trkpt lat="49.15113" lon="7.02903">
        <ele>201</ele>
        <time>2014-01-26T09:22:59Z</time>
      </trkpt>
      <trkpt lat="49.15121" lon="7.02907">
        <ele>205</ele>
        <time>2014-01-26T09:23:03Z</time>
      </trkpt>
      <trkpt lat="49.15129" lon="7.0291">
        <ele>207</ele>
        <time>2014-01-26T09:23:10Z</time>
      </trkpt>
      <trkpt lat="49.15137" lon="7.02914">
        <ele>211</ele>
        <time>2014-01-26T09:23:16Z</time>
      </trkpt>
      <trkpt lat="49.15145" lon="7.0292">
        <ele>211</ele>
        <time>2014-01-26T09:23:23Z</time>
      </trkpt>
      <trkpt lat="49.15151" lon="7.02927">
        <ele>212</ele>
        <time>2014-01-26T09:23:30Z</time>
      </trkpt>
      <trkpt lat="49.15162" lon="7.02931">
        <ele>219</ele>
        <time>2014-01-26T09:23:34Z</time>
      </trkpt>
      <trkpt lat="49.15169" lon="7.02937">
        <ele>215</ele>
        <time>2014-01-26T09:23:44Z</time>
      </trkpt>
      <trkpt lat="49.15173" lon="7.02948">
        <ele>229</ele>
        <time>2014-01-26T09:23:55Z</time>
      </trkpt>
      <trkpt lat="49.1517" lon="7.0296">
        <ele>238</ele>
        <time>2014-01-26T09:24:03Z</time>
      </trkpt>
      <trkpt lat="49.15166" lon="7.02971">
        <ele>243</ele>
        <time>2014-01-26T09:24:10Z</time>
      </trkpt>
      <trkpt lat="49.15162" lon="7.02982">
        <ele>245</ele>
        <time>2014-01-26T09:24:14Z</time>
      </trkpt>
      <trkpt lat="49.15157" lon="7.02993">
        <ele>241</ele>
        <time>2014-01-26T09:24:21Z</time>
      </trkpt>
      <trkpt lat="49.15152" lon="7.03004">
        <ele>240</ele>
        <time>2014-01-26T09:24:26Z</time>
      </trkpt>
      <trkpt lat="49.15148" lon="7.03013">
        <ele>238</ele>
        <time>2014-01-26T09:24:33Z</time>
      </trkpt>
      <trkpt lat="49.15141" lon="7.0302">
        <ele>242</ele>
        <time>2014-01-26T09:24:38Z</time>
      </trkpt>
      <trkpt lat="49.15136" lon="7.0303">
        <ele>244</ele>
        <time>2014-01-26T09:24:43Z</time>
      </trkpt>
      <trkpt lat="49.1513" lon="7.03041">
        <ele>242</ele>
        <time>2014-01-26T09:24:51Z</time>
      </trkpt>
      <trkpt lat="49.15122" lon="7.03047">
        <ele>246</ele>
        <time>2014-01-26T09:24:56Z</time>
      </trkpt>
      <trkpt lat="49.15118" lon="7.03058">
        <ele>241</ele>
        <time>2014-01-26T09:25:03Z</time>
      </trkpt>
      <trkpt lat="49.15113" lon="7.03065">
        <ele>244</ele>
        <time>2014-01-26T09:25:07Z</time>
      </trkpt>
      <trkpt lat="49.15109" lon="7.03075">
        <ele>243</ele>
        <time>2014-01-26T09:25:11Z</time>
      </trkpt>
      <trkpt lat="49.15105" lon="7.03085">
        <ele>241</ele>
        <time>2014-01-26T09:25:17Z</time>
      </trkpt>
      <trkpt lat="49.15099" lon="7.03094">
        <ele>241</ele>
        <time>2014-01-26T09:25:23Z</time>
      </trkpt>
      <trkpt lat="49.15093" lon="7.03103">
        <ele>242</ele>
        <time>2014-01-26T09:25:29Z</time>
      </trkpt>
      <trkpt lat="49.15089" lon="7.03114">
        <ele>240</ele>
        <time>2014-01-26T09:25:37Z</time>
      </trkpt>
      <trkpt lat="49.15084" lon="7.03124">
        <ele>244</ele>
        <time>2014-01-26T09:25:41Z</time>
      </trkpt>
      <trkpt lat="49.15078" lon="7.03133">
        <ele>241</ele>
        <time>2014-01-26T09:25:50Z</time>
      </trkpt>
      <trkpt lat="49.15074" lon="7.03143">
        <ele>241</ele>
        <time>2014-01-26T09:25:56Z</time>
      </trkpt>
      <trkpt lat="49.15069" lon="7.03153">
        <ele>239</ele>
        <time>2014-01-26T09:26:03Z</time>
      </trkpt>
      <trkpt lat="49.15062" lon="7.03162">
        <ele>241</ele>
        <time>2014-01-26T09:26:08Z</time>
      </trkpt>
      <trkpt lat="49.15057" lon="7.03172">
        <ele>240</ele>
        <time>2014-01-26T09:26:15Z</time>
      </trkpt>
      <trkpt lat="49.15059" lon="7.03185">
        <ele>239</ele>
        <time>2014-01-26T09:26:22Z</time>
      </trkpt>
      <trkpt lat="49.15065" lon="7.03194">
        <ele>241</ele>
        <time>2014-01-26T09:26:28Z</time>
      </trkpt>
      <trkpt lat="49.15071" lon="7.03204">
        <ele>241</ele>
        <time>2014-01-26T09:26:35Z</time>
      </trkpt>
      <trkpt lat="49.15077" lon="7.03213">
        <ele>241</ele>
        <time>2014-01-26T09:26:42Z</time>
      </trkpt>
      <trkpt lat="49.15085" lon="7.03215">
        <ele>240</ele>
        <time>2014-01-26T09:26:49Z</time>
      </trkpt>
      <trkpt lat="49.15093" lon="7.03219">
        <ele>237</ele>
        <time>2014-01-26T09:26:56Z</time>
      </trkpt>
      <trkpt lat="49.15101" lon="7.03223">
        <ele>229</ele>
        <time>2014-01-26T09:27:09Z</time>
      </trkpt>
      <trkpt lat="49.1511" lon="7.03228">
        <ele>224</ele>
        <time>2014-01-26T09:27:21Z</time>
      </trkpt>
      <trkpt lat="49.15116" lon="7.03237">
        <ele>225</ele>
        <time>2014-01-26T09:27:28Z</time>
      </trkpt>
      <trkpt lat="49.15124" lon="7.03244">
        <ele>223</ele>
        <time>2014-01-26T09:27:37Z</time>
      </trkpt>
      <trkpt lat="49.15131" lon="7.0325">
        <ele>220</ele>
        <time>2014-01-26T09:27:43Z</time>
      </trkpt>
      <trkpt lat="49.15137" lon="7.03259">
        <ele>217</ele>
        <time>2014-01-26T09:27:50Z</time>
      </trkpt>
      <trkpt lat="49.1514" lon="7.03269">
        <ele>219</ele>
        <time>2014-01-26T09:27:55Z</time>
      </trkpt>
      <trkpt lat="49.15147" lon="7.03275">
        <ele>207</ele>
        <time>2014-01-26T09:28:07Z</time>
      </trkpt>
      <trkpt lat="49.15153" lon="7.03285">
        <ele>208</ele>
        <time>2014-01-26T09:28:14Z</time>
      </trkpt>
      <trkpt lat="49.15159" lon="7.03295">
        <ele>209</ele>
        <time>2014-01-26T09:28:22Z</time>
      </trkpt>
      <trkpt lat="49.15164" lon="7.03307">
        <ele>207</ele>
        <time>2014-01-26T09:28:30Z</time>
      </trkpt>
      <trkpt lat="49.15168" lon="7.03318">
        <ele>208</ele>
        <time>2014-01-26T09:28:34Z</time>
      </trkpt>
      <trkpt lat="49.15172" lon="7.0333">
        <ele>208</ele>
        <time>2014-01-26T09:28:42Z</time>
      </trkpt>
      <trkpt lat="49.15175" lon="7.03341">
        <ele>210</ele>
        <time>2014-01-26T09:28:48Z</time>
      </trkpt>
      <trkpt lat="49.15177" lon="7.03353">
        <ele>208</ele>
        <time>2014-01-26T09:28:55Z</time>
      </trkpt>
      <trkpt lat="49.1518" lon="7.03365">
        <ele>211</ele>
        <time>2014-01-26T09:29:01Z</time>
      </trkpt>
      <trkpt lat="49.15182" lon="7.03376">
        <ele>209</ele>
        <time>2014-01-26T09:29:07Z</time>
      </trkpt>
      <trkpt lat="49.15184" lon="7.03388">
        <ele>210</ele>
        <time>2014-01-26T09:29:13Z</time>
      </trkpt>
      <trkpt lat="49.15186" lon="7.03401">
        <ele>210</ele>
        <time>2014-01-26T09:29:19Z</time>
      </trkpt>
      <trkpt lat="49.15186" lon="7.03414">
        <ele>214</ele>
        <time>2014-01-26T09:29:24Z</time>
      </trkpt>
      <trkpt lat="49.15186" lon="7.03426">
        <ele>216</ele>
        <time>2014-01-26T09:29:29Z</time>
      </trkpt>
      <trkpt lat="49.15186" lon="7.03437">
        <ele>221</ele>
        <time>2014-01-26T09:29:33Z</time>
      </trkpt>
      <trkpt lat="49.15185" lon="7.03449">
        <ele>222</ele>
        <time>2014-01-26T09:29:38Z</time>
      </trkpt>
      <trkpt lat="49.15186" lon="7.03462">
        <ele>225</ele>
        <time>2014-01-26T09:29:43Z</time>
      </trkpt>
      <trkpt lat="49.15184" lon="7.03476">
        <ele>230</ele>
        <time>2014-01-26T09:29:48Z</time>
      </trkpt>
      <trkpt lat="49.15182" lon="7.03489">
        <ele>234</ele>
        <time>2014-01-26T09:29:52Z</time>
      </trkpt>
      <trkpt lat="49.1518" lon="7.03501">
        <ele>237</ele>
        <time>2014-01-26T09:29:58Z</time>
      </trkpt>
      <trkpt lat="49.15175" lon="7.03512">
        <ele>239</ele>
        <time>2014-01-26T09:30:04Z</time>
      </trkpt>
      <trkpt lat="49.1517" lon="7.03522">
        <ele>239</ele>
        <time>2014-01-26T09:30:10Z</time>
      </trkpt>
      <trkpt lat="49.15171" lon="7.03535">
        <ele>240</ele>
        <time>2014-01-26T09:30:18Z</time>
      </trkpt>
      <trkpt lat="49.15174" lon="7.03546">
        <ele>236</ele>
        <time>2014-01-26T09:30:27Z</time>
      </trkpt>
      <trkpt lat="49.15177" lon="7.03559">
        <ele>234</ele>
        <time>2014-01-26T09:30:34Z</time>
      </trkpt>
      <trkpt lat="49.15185" lon="7.03564">
        <ele>236</ele>
        <time>2014-01-26T09:30:42Z</time>
      </trkpt>
      <trkpt lat="49.15193" lon="7.03561">
        <ele>238</ele>
        <time>2014-01-26T09:30:49Z</time>
      </trkpt>
      <trkpt lat="49.152" lon="7.03554">
        <ele>239</ele>
        <time>2014-01-26T09:30:56Z</time>
      </trkpt>
      <trkpt lat="49.15208" lon="7.03549">
        <ele>240</ele>
        <time>2014-01-26T09:31:02Z</time>
      </trkpt>
      <trkpt lat="49.15215" lon="7.03542">
        <ele>239</ele>
        <time>2014-01-26T09:31:09Z</time>
      </trkpt>
      <trkpt lat="49.15222" lon="7.03536">
        <ele>239</ele>
        <time>2014-01-26T09:31:15Z</time>
      </trkpt>
      <trkpt lat="49.15229" lon="7.03528">
        <ele>236</ele>
        <time>2014-01-26T09:31:23Z</time>
      </trkpt>
      <trkpt lat="49.15235" lon="7.03521">
        <ele>233</ele>
        <time>2014-01-26T09:31:30Z</time>
      </trkpt>
      <trkpt lat="49.15243" lon="7.03514">
        <ele>234</ele>
        <time>2014-01-26T09:31:36Z</time>
      </trkpt>
      <trkpt lat="49.15249" lon="7.03509">
        <ele>237</ele>
        <time>2014-01-26T09:31:41Z</time>
      </trkpt>
      <trkpt lat="49.15256" lon="7.03502">
        <ele>236</ele>
        <time>2014-01-26T09:31:48Z</time>
      </trkpt>
      <trkpt lat="49.15261" lon="7.03494">
        <ele>231</ele>
        <time>2014-01-26T09:31:55Z</time>
      </trkpt>
      <trkpt lat="49.15267" lon="7.03487">
        <ele>230</ele>
        <time>2014-01-26T09:32:01Z</time>
      </trkpt>
      <trkpt lat="49.15274" lon="7.03479">
        <ele>225</ele>
        <time>2014-01-26T09:32:08Z</time>
      </trkpt>
      <trkpt lat="49.1528" lon="7.0347">
        <ele>221</ele>
        <time>2014-01-26T09:32:14Z</time>
      </trkpt>
      <trkpt lat="49.15286" lon="7.03465">
        <ele>220</ele>
        <time>2014-01-26T09:32:19Z</time>
      </trkpt>
      <trkpt lat="49.15293" lon="7.0346">
        <ele>223</ele>
        <time>2014-01-26T09:32:23Z</time>
      </trkpt>
      <trkpt lat="49.15296" lon="7.03449">
        <ele>219</ele>
        <time>2014-01-26T09:32:32Z</time>
      </trkpt>
      <trkpt lat="49.15301" lon="7.03439">
        <ele>220</ele>
        <time>2014-01-26T09:32:39Z</time>
      </trkpt>
      <trkpt lat="49.15308" lon="7.03431">
        <ele>217</ele>
        <time>2014-01-26T09:32:47Z</time>
      </trkpt>
      <trkpt lat="49.15309" lon="7.03418">
        <ele>213</ele>
        <time>2014-01-26T09:32:54Z</time>
      </trkpt>
      <trkpt lat="49.15316" lon="7.0341">
        <ele>220</ele>
        <time>2014-01-26T09:32:59Z</time>
      </trkpt>
      <trkpt lat="49.1532" lon="7.03398">
        <ele>217</ele>
        <time>2014-01-26T09:33:06Z</time>
      </trkpt>
      <trkpt lat="49.15323" lon="7.03385">
        <ele>211</ele>
        <time>2014-01-26T09:33:14Z</time>
      </trkpt>
      <trkpt lat="49.15329" lon="7.03377">
        <ele>211</ele>
        <time>2014-01-26T09:33:20Z</time>
      </trkpt>
      <trkpt lat="49.15336" lon="7.03368">
        <ele>213</ele>
        <time>2014-01-26T09:33:26Z</time>
      </trkpt>
      <trkpt lat="49.15342" lon="7.0336">
        <ele>214</ele>
        <time>2014-01-26T09:33:33Z</time>
      </trkpt>
      <trkpt lat="49.15347" lon="7.03351">
        <ele>209</ele>
        <time>2014-01-26T09:33:41Z</time>
      </trkpt>
      <trkpt lat="49.15355" lon="7.03352">
        <ele>211</ele>
        <time>2014-01-26T09:33:45Z</time>
      </trkpt>
      <trkpt lat="49.15363" lon="7.03348">
        <ele>214</ele>
        <time>2014-01-26T09:33:50Z</time>
      </trkpt>
      <trkpt lat="49.15369" lon="7.03339">
        <ele>217</ele>
        <time>2014-01-26T09:33:56Z</time>
      </trkpt>
      <trkpt lat="49.15375" lon="7.0333">
        <ele>217</ele>
        <time>2014-01-26T09:34:02Z</time>
      </trkpt>
      <trkpt lat="49.15379" lon="7.03318">
        <ele>216</ele>
        <time>2014-01-26T09:34:10Z</time>
      </trkpt>
      <trkpt lat="49.15384" lon="7.03309">
        <ele>209</ele>
        <time>2014-01-26T09:34:17Z</time>
      </trkpt>
      <trkpt lat="49.15389" lon="7.033">
        <ele>212</ele>
        <time>2014-01-26T09:34:23Z</time>
      </trkpt>
      <trkpt lat="49.15395" lon="7.0329">
        <ele>204</ele>
        <time>2014-01-26T09:34:32Z</time>
      </trkpt>
      <trkpt lat="49.15402" lon="7.03282">
        <ele>202</ele>
        <time>2014-01-26T09:34:38Z</time>
      </trkpt>
      <trkpt lat="49.15406" lon="7.03271">
        <ele>200</ele>
        <time>2014-01-26T09:34:45Z</time>
      </trkpt>
      <trkpt lat="49.15412" lon="7.03262">
        <ele>198</ele>
        <time>2014-01-26T09:34:53Z</time>
      </trkpt>
      <trkpt lat="49.15418" lon="7.03254">
        <ele>196</ele>
        <time>2014-01-26T09:35:01Z</time>
      </trkpt>
      <trkpt lat="49.15426" lon="7.03248">
        <ele>191</ele>
        <time>2014-01-26T09:35:09Z</time>
      </trkpt>
      <trkpt lat="49.15431" lon="7.03239">
        <ele>192</ele>
        <time>2014-01-26T09:35:14Z</time>
      </trkpt>
      <trkpt lat="49.15438" lon="7.03231">
        <ele>195</ele>
        <time>2014-01-26T09:35:20Z</time>
      </trkpt>
      <trkpt lat="49.15444" lon="7.03224">
        <ele>197</ele>
        <time>2014-01-26T09:35:24Z</time>
      </trkpt>
      <trkpt lat="49.15451" lon="7.03216">
        <ele>196</ele>
        <time>2014-01-26T09:35:30Z</time>
      </trkpt>
      <trkpt lat="49.15457" lon="7.0321">
        <ele>200</ele>
        <time>2014-01-26T09:35:36Z</time>
      </trkpt>
      <trkpt lat="49.15465" lon="7.03206">
        <ele>204</ele>
        <time>2014-01-26T09:35:40Z</time>
      </trkpt>
      <trkpt lat="49.15476" lon="7.03201">
        <ele>211</ele>
        <time>2014-01-26T09:35:45Z</time>
      </trkpt>
      <trkpt lat="49.15484" lon="7.03196">
        <ele>215</ele>
        <time>2014-01-26T09:35:50Z</time>
      </trkpt>
      <trkpt lat="49.15493" lon="7.03193">
        <ele>221</ele>
        <time>2014-01-26T09:35:55Z</time>
      </trkpt>
      <trkpt lat="49.15503" lon="7.0319">
        <ele>224</ele>
        <time>2014-01-26T09:36:00Z</time>
      </trkpt>
      <trkpt lat="49.15511" lon="7.03187">
        <ele>229</ele>
        <time>2014-01-26T09:36:05Z</time>
      </trkpt>
      <trkpt lat="49.15518" lon="7.03182">
        <ele>231</ele>
        <time>2014-01-26T09:36:09Z</time>
      </trkpt>
      <trkpt lat="49.15525" lon="7.03179">
        <ele>233</ele>
        <time>2014-01-26T09:36:14Z</time>
      </trkpt>
      <trkpt lat="49.15533" lon="7.03175">
        <ele>233</ele>
        <time>2014-01-26T09:36:21Z</time>
      </trkpt>
      <trkpt lat="49.15541" lon="7.0317">
        <ele>234</ele>
        <time>2014-01-26T09:36:28Z</time>
      </trkpt>
      <trkpt lat="49.15547" lon="7.0316">
        <ele>235</ele>
        <time>2014-01-26T09:36:35Z</time>
      </trkpt>
      <trkpt lat="49.15545" lon="7.03147">
        <ele>237</ele>
        <time>2014-01-26T09:36:44Z</time>
      </trkpt>
      <trkpt lat="49.15545" lon="7.03134">
        <ele>236</ele>
        <time>2014-01-26T09:36:56Z</time>
      </trkpt>
      <trkpt lat="49.15546" lon="7.03146">
        <ele>236</ele>
        <time>2014-01-26T09:40:57Z</time>
      </trkpt>
      <trkpt lat="49.15551" lon="7.03155">
        <ele>233</ele>
        <time>2014-01-26T09:41:04Z</time>
      </trkpt>
      <trkpt lat="49.1556" lon="7.03153">
        <ele>230</ele>
        <time>2014-01-26T09:41:15Z</time>
      </trkpt>
      <trkpt lat="49.15566" lon="7.03145">
        <ele>231</ele>
        <time>2014-01-26T09:41:22Z</time>
      </trkpt>
      <trkpt lat="49.15571" lon="7.03134">
        <ele>217</ele>
        <time>2014-01-26T09:41:38Z</time>
      </trkpt>
      <trkpt lat="49.15579" lon="7.03136">
        <ele>220</ele>
        <time>2014-01-26T09:41:43Z</time>
      </trkpt>
      <trkpt lat="49.15585" lon="7.03131">
        <ele>215</ele>
        <time>2014-01-26T09:41:50Z</time>
      </trkpt>
      <trkpt lat="49.15593" lon="7.03129">
        <ele>213</ele>
        <time>2014-01-26T09:41:56Z</time>
      </trkpt>
      <trkpt lat="49.156" lon="7.03128">
        <ele>214</ele>
        <time>2014-01-26T09:42:02Z</time>
      </trkpt>
      <trkpt lat="49.15608" lon="7.03124">
        <ele>217</ele>
        <time>2014-01-26T09:42:17Z</time>
      </trkpt>
      <trkpt lat="49.15618" lon="7.03122">
        <ele>220</ele>
        <time>2014-01-26T09:42:22Z</time>
      </trkpt>
      <trkpt lat="49.15626" lon="7.03118">
        <ele>221</ele>
        <time>2014-01-26T09:42:27Z</time>
      </trkpt>
      <trkpt lat="49.15634" lon="7.03117">
        <ele>218</ele>
        <time>2014-01-26T09:42:35Z</time>
      </trkpt>
      <trkpt lat="49.15642" lon="7.03112">
        <ele>210</ele>
        <time>2014-01-26T09:42:46Z</time>
      </trkpt>
      <trkpt lat="49.1565" lon="7.03111">
        <ele>211</ele>
        <time>2014-01-26T09:42:54Z</time>
      </trkpt>
      <trkpt lat="49.15658" lon="7.03106">
        <ele>205</ele>
        <time>2014-01-26T09:43:07Z</time>
      </trkpt>
      <trkpt lat="49.15666" lon="7.03104">
        <ele>201</ele>
        <time>2014-01-26T09:43:14Z</time>
      </trkpt>
      <trkpt lat="49.15674" lon="7.03104">
        <ele>201</ele>
        <time>2014-01-26T09:43:19Z</time>
      </trkpt>
      <trkpt lat="49.15682" lon="7.03104">
        <ele>204</ele>
        <time>2014-01-26T09:43:26Z</time>
      </trkpt>
      <trkpt lat="49.15691" lon="7.03102">
        <ele>208</ele>
        <time>2014-01-26T09:43:31Z</time>
      </trkpt>
      <trkpt lat="49.157" lon="7.031">
        <ele>207</ele>
        <time>2014-01-26T09:43:36Z</time>
      </trkpt>
      <trkpt lat="49.15708" lon="7.031">
        <ele>205</ele>
        <time>2014-01-26T09:43:43Z</time>
      </trkpt>
      <trkpt lat="49.15714" lon="7.031">
        <ele>201</ele>
        <time>2014-01-26T09:43:53Z</time>
      </trkpt>
      <trkpt lat="49.15723" lon="7.03101">
        <ele>198</ele>
        <time>2014-01-26T09:44:01Z</time>
      </trkpt>
      <trkpt lat="49.1573" lon="7.03109">
        <ele>194</ele>
        <time>2014-01-26T09:44:10Z</time>
      </trkpt>
      <trkpt lat="49.15737" lon="7.03106">
        <ele>191</ele>
        <time>2014-01-26T09:44:18Z</time>
      </trkpt>
      <trkpt lat="49.15746" lon="7.03106">
        <ele>196</ele>
        <time>2014-01-26T09:44:23Z</time>
      </trkpt>
      <trkpt lat="49.15754" lon="7.03103">
        <ele>198</ele>
        <time>2014-01-26T09:44:28Z</time>
      </trkpt>
      <trkpt lat="49.15762" lon="7.03107">
        <ele>199</ele>
        <time>2014-01-26T09:44:33Z</time>
      </trkpt>
      <trkpt lat="49.15771" lon="7.03101">
        <ele>202</ele>
        <time>2014-01-26T09:44:37Z</time>
      </trkpt>
      <trkpt lat="49.15781" lon="7.03098">
        <ele>204</ele>
        <time>2014-01-26T09:44:41Z</time>
      </trkpt>
      <trkpt lat="49.1579" lon="7.03094">
        <ele>204</ele>
        <time>2014-01-26T09:44:47Z</time>
      </trkpt>
      <trkpt lat="49.15798" lon="7.03093">
        <ele>205</ele>
        <time>2014-01-26T09:44:53Z</time>
      </trkpt>
      <trkpt lat="49.15806" lon="7.03094">
        <ele>205</ele>
        <time>2014-01-26T09:44:58Z</time>
      </trkpt>
      <trkpt lat="49.15815" lon="7.03097">
        <ele>206</ele>
        <time>2014-01-26T09:45:04Z</time>
      </trkpt>
      <trkpt lat="49.15824" lon="7.03099">
        <ele>201</ele>
        <time>2014-01-26T09:45:16Z</time>
      </trkpt>
      <trkpt lat="49.15832" lon="7.031">
        <ele>203</ele>
        <time>2014-01-26T09:45:21Z</time>
      </trkpt>
      <trkpt lat="49.15841" lon="7.03097">
        <ele>204</ele>
        <time>2014-01-26T09:45:26Z</time>
      </trkpt>
      <trkpt lat="49.15847" lon="7.031">
        <ele>206</ele>
        <time>2014-01-26T09:45:30Z</time>
      </trkpt>
      <trkpt lat="49.15856" lon="7.03106">
        <ele>209</ele>
        <time>2014-01-26T09:45:35Z</time>
      </trkpt>
      <trkpt lat="49.15864" lon="7.03108">
        <ele>210</ele>
        <time>2014-01-26T09:45:43Z</time>
      </trkpt>
      <trkpt lat="49.15873" lon="7.03107">
        <ele>211</ele>
        <time>2014-01-26T09:45:48Z</time>
      </trkpt>
      <trkpt lat="49.15881" lon="7.03112">
        <ele>214</ele>
        <time>2014-01-26T09:45:54Z</time>
      </trkpt>
      <trkpt lat="49.15889" lon="7.03113">
        <ele>214</ele>
        <time>2014-01-26T09:45:59Z</time>
      </trkpt>
      <trkpt lat="49.15897" lon="7.03112">
        <ele>207</ele>
        <time>2014-01-26T09:46:10Z</time>
      </trkpt>
      <trkpt lat="49.15905" lon="7.03116">
        <ele>210</ele>
        <time>2014-01-26T09:46:16Z</time>
      </trkpt>
      <trkpt lat="49.15913" lon="7.03119">
        <ele>211</ele>
        <time>2014-01-26T09:46:23Z</time>
      </trkpt>
      <trkpt lat="49.1592" lon="7.03124">
        <ele>213</ele>
        <time>2014-01-26T09:46:27Z</time>
      </trkpt>
      <trkpt lat="49.15928" lon="7.03125">
        <ele>214</ele>
        <time>2014-01-26T09:46:33Z</time>
      </trkpt>
      <trkpt lat="49.15936" lon="7.03128">
        <ele>218</ele>
        <time>2014-01-26T09:46:40Z</time>
      </trkpt>
      <trkpt lat="49.15944" lon="7.0313">
        <ele>220</ele>
        <time>2014-01-26T09:46:49Z</time>
      </trkpt>
      <trkpt lat="49.15953" lon="7.03135">
        <ele>224</ele>
        <time>2014-01-26T09:46:54Z</time>
      </trkpt>
      <trkpt lat="49.15962" lon="7.03139">
        <ele>225</ele>
        <time>2014-01-26T09:47:01Z</time>
      </trkpt>
      <trkpt lat="49.1597" lon="7.03141">
        <ele>222</ele>
        <time>2014-01-26T09:47:19Z</time>
      </trkpt>
      <trkpt lat="49.15977" lon="7.03148">
        <ele>216</ele>
        <time>2014-01-26T09:47:26Z</time>
      </trkpt>
      <trkpt lat="49.15989" lon="7.03152">
        <ele>215</ele>
        <time>2014-01-26T09:47:30Z</time>
      </trkpt>
      <trkpt lat="49.15997" lon="7.03159">
        <ele>209</ele>
        <time>2014-01-26T09:47:41Z</time>
      </trkpt>
      <trkpt lat="49.16004" lon="7.03161">
        <ele>210</ele>
        <time>2014-01-26T09:47:47Z</time>
      </trkpt>
      <trkpt lat="49.16012" lon="7.03163">
        <ele>206</ele>
        <time>2014-01-26T09:47:58Z</time>
      </trkpt>
      <trkpt lat="49.16019" lon="7.03168">
        <ele>202</ele>
        <time>2014-01-26T09:48:08Z</time>
      </trkpt>
      <trkpt lat="49.16027" lon="7.03168">
        <ele>205</ele>
        <time>2014-01-26T09:48:12Z</time>
      </trkpt>
      <trkpt lat="49.16036" lon="7.03167">
        <ele>205</ele>
        <time>2014-01-26T09:48:19Z</time>
      </trkpt>
      <trkpt lat="49.16045" lon="7.03169">
        <ele>206</ele>
        <time>2014-01-26T09:48:24Z</time>
      </trkpt>
      <trkpt lat="49.16054" lon="7.0317">
        <ele>201</ele>
        <time>2014-01-26T09:48:37Z</time>
      </trkpt>
      <trkpt lat="49.16063" lon="7.03169">
        <ele>202</ele>
        <time>2014-01-26T09:48:47Z</time>
      </trkpt>
      <trkpt lat="49.16072" lon="7.03171">
        <ele>205</ele>
        <time>2014-01-26T09:48:52Z</time>
      </trkpt>
      <trkpt lat="49.16081" lon="7.03168">
        <ele>205</ele>
        <time>2014-01-26T09:48:57Z</time>
      </trkpt>
      <trkpt lat="49.16088" lon="7.03168">
        <ele>204</ele>
        <time>2014-01-26T09:49:02Z</time>
      </trkpt>
      <trkpt lat="49.16097" lon="7.0317">
        <ele>210</ele>
        <time>2014-01-26T09:49:07Z</time>
      </trkpt>
      <trkpt lat="49.16105" lon="7.03167">
        <ele>213</ele>
        <time>2014-01-26T09:49:11Z</time>
      </trkpt>
      <trkpt lat="49.16115" lon="7.03165">
        <ele>215</ele>
        <time>2014-01-26T09:49:16Z</time>
      </trkpt>
      <trkpt lat="49.16123" lon="7.03165">
        <ele>216</ele>
        <time>2014-01-26T09:49:22Z</time>
      </trkpt>
      <trkpt lat="49.1613" lon="7.03162">
        <ele>214</ele>
        <time>2014-01-26T09:49:28Z</time>
      </trkpt>
      <trkpt lat="49.1614" lon="7.03161">
        <ele>216</ele>
        <time>2014-01-26T09:49:33Z</time>
      </trkpt>
      <trkpt lat="49.16149" lon="7.03163">
        <ele>219</ele>
        <time>2014-01-26T09:49:44Z</time>
      </trkpt>
      <trkpt lat="49.16156" lon="7.03163">
        <ele>218</ele>
        <time>2014-01-26T09:49:57Z</time>
      </trkpt>
      <trkpt lat="49.16164" lon="7.03162">
        <ele>216</ele>
        <time>2014-01-26T09:50:03Z</time>
      </trkpt>
      <trkpt lat="49.1617" lon="7.03158">
        <ele>217</ele>
        <time>2014-01-26T09:50:09Z</time>
      </trkpt>
      <trkpt lat="49.16178" lon="7.03156">
        <ele>215</ele>
        <time>2014-01-26T09:50:14Z</time>
      </trkpt>
      <trkpt lat="49.16186" lon="7.03148">
        <ele>216</ele>
        <time>2014-01-26T09:50:19Z</time>
      </trkpt>
      <trkpt lat="49.16195" lon="7.03147">
        <ele>215</ele>
        <time>2014-01-26T09:50:24Z</time>
      </trkpt>
      <trkpt lat="49.16202" lon="7.03141">
        <ele>210</ele>
        <time>2014-01-26T09:50:35Z</time>
      </trkpt>
      <trkpt lat="49.1621" lon="7.03134">
        <ele>206</ele>
        <time>2014-01-26T09:50:43Z</time>
      </trkpt>
      <trkpt lat="49.16214" lon="7.03132">
        <ele>202</ele>
        <time>2014-01-26T09:50:48Z</time>
      </trkpt>
      <trkpt lat="49.16222" lon="7.03131">
        <ele>200</ele>
        <time>2014-01-26T09:50:53Z</time>
      </trkpt>
      <trkpt lat="49.16228" lon="7.03121">
        <ele>194</ele>
        <time>2014-01-26T09:51:02Z</time>
      </trkpt>
      <trkpt lat="49.16236" lon="7.03118">
        <ele>198</ele>
        <time>2014-01-26T09:51:09Z</time>
      </trkpt>
      <trkpt lat="49.1624" lon="7.03107">
        <ele>185</ele>
        <time>2014-01-26T09:51:21Z</time>
      </trkpt>
      <trkpt lat="49.16249" lon="7.03106">
        <ele>187</ele>
        <time>2014-01-26T09:51:28Z</time>
      </trkpt>
      <trkpt lat="49.16254" lon="7.03095">
        <ele>175</ele>
        <time>2014-01-26T09:51:44Z</time>
      </trkpt>
      <trkpt lat="49.1626" lon="7.03093">
        <ele>170</ele>
        <time>2014-01-26T09:51:56Z</time>
      </trkpt>
      <trkpt lat="49.16266" lon="7.03089">
        <ele>165</ele>
        <time>2014-01-26T09:52:01Z</time>
      </trkpt>
      <trkpt lat="49.16272" lon="7.03081">
        <ele>158</ele>
        <time>2014-01-26T09:52:13Z</time>
      </trkpt>
      <trkpt lat="49.1628" lon="7.03079">
        <ele>160</ele>
        <time>2014-01-26T09:52:18Z</time>
      </trkpt>
      <trkpt lat="49.16287" lon="7.03071">
        <ele>155</ele>
        <time>2014-01-26T09:52:27Z</time>
      </trkpt>
      <trkpt lat="49.16295" lon="7.03066">
        <ele>157</ele>
        <time>2014-01-26T09:52:33Z</time>
      </trkpt>
      <trkpt lat="49.16308" lon="7.03061">
        <ele>162</ele>
        <time>2014-01-26T09:52:38Z</time>
      </trkpt>
      <trkpt lat="49.16314" lon="7.03051">
        <ele>161</ele>
        <time>2014-01-26T09:52:45Z</time>
      </trkpt>
      <trkpt lat="49.16318" lon="7.03039">
        <ele>154</ele>
        <time>2014-01-26T09:52:53Z</time>
      </trkpt>
      <trkpt lat="49.16328" lon="7.03031">
        <ele>157</ele>
        <time>2014-01-26T09:52:57Z</time>
      </trkpt>
      <trkpt lat="49.16334" lon="7.03025">
        <ele>161</ele>
        <time>2014-01-26T09:53:02Z</time>
      </trkpt>
      <trkpt lat="49.16343" lon="7.03017">
        <ele>165</ele>
        <time>2014-01-26T09:53:06Z</time>
      </trkpt>
      <trkpt lat="49.16352" lon="7.03017">
        <ele>168</ele>
        <time>2014-01-26T09:53:11Z</time>
      </trkpt>
      <trkpt lat="49.16361" lon="7.0302">
        <ele>171</ele>
        <time>2014-01-26T09:53:16Z</time>
      </trkpt>
      <trkpt lat="49.16369" lon="7.03022">
        <ele>175</ele>
        <time>2014-01-26T09:53:20Z</time>
      </trkpt>
      <trkpt lat="49.16377" lon="7.03023">
        <ele>178</ele>
        <time>2014-01-26T09:53:24Z</time>
      </trkpt>
      <trkpt lat="49.16386" lon="7.03022">
        <ele>180</ele>
        <time>2014-01-26T09:53:29Z</time>
      </trkpt>
      <trkpt lat="49.16394" lon="7.0302">
        <ele>182</ele>
        <time>2014-01-26T09:53:35Z</time>
      </trkpt>
      <trkpt lat="49.16401" lon="7.03019">
        <ele>181</ele>
        <time>2014-01-26T09:53:41Z</time>
      </trkpt>
      <trkpt lat="49.1641" lon="7.03016">
        <ele>182</ele>
        <time>2014-01-26T09:53:47Z</time>
      </trkpt>
      <trkpt lat="49.16419" lon="7.03013">
        <ele>184</ele>
        <time>2014-01-26T09:53:52Z</time>
      </trkpt>
      <trkpt lat="49.16427" lon="7.03009">
        <ele>189</ele>
        <time>2014-01-26T09:54:00Z</time>
      </trkpt>
      <trkpt lat="49.16439" lon="7.03006">
        <ele>189</ele>
        <time>2014-01-26T09:54:05Z</time>
      </trkpt>
      <trkpt lat="49.16449" lon="7.03005">
        <ele>192</ele>
        <time>2014-01-26T09:54:09Z</time>
      </trkpt>
      <trkpt lat="49.16456" lon="7.03002">
        <ele>196</ele>
        <time>2014-01-26T09:54:15Z</time>
      </trkpt>
      <trkpt lat="49.16464" lon="7.02996">
        <ele>198</ele>
        <time>2014-01-26T09:54:20Z</time>
      </trkpt>
      <trkpt lat="49.16471" lon="7.02991">
        <ele>199</ele>
        <time>2014-01-26T09:54:25Z</time>
      </trkpt>
      <trkpt lat="49.1648" lon="7.02988">
        <ele>202</ele>
        <time>2014-01-26T09:54:31Z</time>
      </trkpt>
      <trkpt lat="49.16487" lon="7.02986">
        <ele>204</ele>
        <time>2014-01-26T09:54:38Z</time>
      </trkpt>
      <trkpt lat="49.16496" lon="7.02983">
        <ele>205</ele>
        <time>2014-01-26T09:54:42Z</time>
      </trkpt>
      <trkpt lat="49.16504" lon="7.02977">
        <ele>204</ele>
        <time>2014-01-26T09:54:49Z</time>
      </trkpt>
      <trkpt lat="49.16512" lon="7.02977">
        <ele>206</ele>
        <time>2014-01-26T09:54:53Z</time>
      </trkpt>
      <trkpt lat="49.1652" lon="7.0297">
        <ele>202</ele>
        <time>2014-01-26T09:55:04Z</time>
      </trkpt>
      <trkpt lat="49.16527" lon="7.02964">
        <ele>200</ele>
        <time>2014-01-26T09:55:11Z</time>
      </trkpt>
      <trkpt lat="49.16535" lon="7.02962">
        <ele>201</ele>
        <time>2014-01-26T09:55:16Z</time>
      </trkpt>
      <trkpt lat="49.16542" lon="7.02963">
        <ele>202</ele>
        <time>2014-01-26T09:55:22Z</time>
      </trkpt>
      <trkpt lat="49.16552" lon="7.02958">
        <ele>206</ele>
        <time>2014-01-26T09:55:27Z</time>
      </trkpt>
      <trkpt lat="49.16555" lon="7.02953">
        <ele>204</ele>
        <time>2014-01-26T09:55:35Z</time>
      </trkpt>
      <trkpt lat="49.16568" lon="7.02949">
        <ele>208</ele>
        <time>2014-01-26T09:55:40Z</time>
      </trkpt>
      <trkpt lat="49.16577" lon="7.02949">
        <ele>213</ele>
        <time>2014-01-26T09:55:44Z</time>
      </trkpt>
      <trkpt lat="49.16592" lon="7.02942">
        <ele>218</ele>
        <time>2014-01-26T09:55:48Z</time>
      </trkpt>
      <trkpt lat="49.16599" lon="7.0294">
        <ele>218</ele>
        <time>2014-01-26T09:55:56Z</time>
      </trkpt>
      <trkpt lat="49.16608" lon="7.02935">
        <ele>222</ele>
        <time>2014-01-26T09:56:00Z</time>
      </trkpt>
      <trkpt lat="49.16615" lon="7.02928">
        <ele>220</ele>
        <time>2014-01-26T09:56:06Z</time>
      </trkpt>
      <trkpt lat="49.16622" lon="7.02924">
        <ele>221</ele>
        <time>2014-01-26T09:56:12Z</time>
      </trkpt>
      <trkpt lat="49.1663" lon="7.02919">
        <ele>221</ele>
        <time>2014-01-26T09:56:18Z</time>
      </trkpt>
      <trkpt lat="49.16637" lon="7.02913">
        <ele>216</ele>
        <time>2014-01-26T09:56:29Z</time>
      </trkpt>
      <trkpt lat="49.16645" lon="7.02908">
        <ele>217</ele>
        <time>2014-01-26T09:56:36Z</time>
      </trkpt>
      <trkpt lat="49.16651" lon="7.02903">
        <ele>217</ele>
        <time>2014-01-26T09:56:42Z</time>
      </trkpt>
      <trkpt lat="49.16658" lon="7.02897">
        <ele>215</ele>
        <time>2014-01-26T09:56:49Z</time>
      </trkpt>
      <trkpt lat="49.16667" lon="7.02894">
        <ele>217</ele>
        <time>2014-01-26T09:56:54Z</time>
      </trkpt>
      <trkpt lat="49.16675" lon="7.0289">
        <ele>221</ele>
        <time>2014-01-26T09:56:59Z</time>
      </trkpt>
      <trkpt lat="49.16683" lon="7.02883">
        <ele>221</ele>
        <time>2014-01-26T09:57:05Z</time>
      </trkpt>
      <trkpt lat="49.1669" lon="7.02878">
        <ele>222</ele>
        <time>2014-01-26T09:57:11Z</time>
      </trkpt>
      <trkpt lat="49.16699" lon="7.02874">
        <ele>225</ele>
        <time>2014-01-26T09:57:15Z</time>
      </trkpt>
      <trkpt lat="49.16705" lon="7.02866">
        <ele>225</ele>
        <time>2014-01-26T09:57:24Z</time>
      </trkpt>
      <trkpt lat="49.16713" lon="7.02859">
        <ele>226</ele>
        <time>2014-01-26T09:57:29Z</time>
      </trkpt>
      <trkpt lat="49.1672" lon="7.02854">
        <ele>219</ele>
        <time>2014-01-26T09:57:41Z</time>
      </trkpt>
      <trkpt lat="49.16729" lon="7.02851">
        <ele>219</ele>
        <time>2014-01-26T09:57:47Z</time>
      </trkpt>
      <trkpt lat="49.16737" lon="7.0285">
        <ele>220</ele>
        <time>2014-01-26T09:57:53Z</time>
      </trkpt>
      <trkpt lat="49.16746" lon="7.02846">
        <ele>221</ele>
        <time>2014-01-26T09:57:58Z</time>
      </trkpt>
      <trkpt lat="49.16754" lon="7.0284">
        <ele>225</ele>
        <time>2014-01-26T09:58:02Z</time>
      </trkpt>
      <trkpt lat="49.16762" lon="7.02837">
        <ele>226</ele>
        <time>2014-01-26T09:58:09Z</time>
      </trkpt>
      <trkpt lat="49.16771" lon="7.02834">
        <ele>227</ele>
        <time>2014-01-26T09:58:16Z</time>
      </trkpt>
      <trkpt lat="49.16779" lon="7.02832">
        <ele>226</ele>
        <time>2014-01-26T09:58:24Z</time>
      </trkpt>
      <trkpt lat="49.16786" lon="7.02824">
        <ele>221</ele>
        <time>2014-01-26T09:58:35Z</time>
      </trkpt>
      <trkpt lat="49.16793" lon="7.02822">
        <ele>223</ele>
        <time>2014-01-26T09:58:40Z</time>
      </trkpt>
      <trkpt lat="49.168" lon="7.02817">
        <ele>222</ele>
        <time>2014-01-26T09:58:46Z</time>
      </trkpt>
      <trkpt lat="49.16807" lon="7.02812">
        <ele>220</ele>
        <time>2014-01-26T09:58:52Z</time>
      </trkpt>
      <trkpt lat="49.16817" lon="7.02807">
        <ele>221</ele>
        <time>2014-01-26T09:58:57Z</time>
      </trkpt>
      <trkpt lat="49.16825" lon="7.02804">
        <ele>222</ele>
        <time>2014-01-26T09:59:05Z</time>
      </trkpt>
      <trkpt lat="49.16833" lon="7.028">
        <ele>224</ele>
        <time>2014-01-26T09:59:10Z</time>
      </trkpt>
      <trkpt lat="49.1684" lon="7.02799">
        <ele>226</ele>
        <time>2014-01-26T09:59:15Z</time>
      </trkpt>
      <trkpt lat="49.16847" lon="7.02798">
        <ele>229</ele>
        <time>2014-01-26T09:59:20Z</time>
      </trkpt>
      <trkpt lat="49.16858" lon="7.02794">
        <ele>232</ele>
        <time>2014-01-26T09:59:25Z</time>
      </trkpt>
      <trkpt lat="49.16866" lon="7.02794">
        <ele>233</ele>
        <time>2014-01-26T09:59:30Z</time>
      </trkpt>
      <trkpt lat="49.16874" lon="7.0279">
        <ele>233</ele>
        <time>2014-01-26T09:59:36Z</time>
      </trkpt>
      <trkpt lat="49.16881" lon="7.02786">
        <ele>233</ele>
        <time>2014-01-26T09:59:40Z</time>
      </trkpt>
      <trkpt lat="49.16889" lon="7.02781">
        <ele>232</ele>
        <time>2014-01-26T09:59:48Z</time>
      </trkpt>
      <trkpt lat="49.16897" lon="7.02779">
        <ele>230</ele>
        <time>2014-01-26T09:59:53Z</time>
      </trkpt>
      <trkpt lat="49.16905" lon="7.02778">
        <ele>230</ele>
        <time>2014-01-26T09:59:58Z</time>
      </trkpt>
      <trkpt lat="49.16916" lon="7.02774">
        <ele>233</ele>
        <time>2014-01-26T10:00:03Z</time>
      </trkpt>
      <trkpt lat="49.16923" lon="7.02769">
        <ele>233</ele>
        <time>2014-01-26T10:00:11Z</time>
      </trkpt>
      <trkpt lat="49.16931" lon="7.02768">
        <ele>234</ele>
        <time>2014-01-26T10:00:16Z</time>
      </trkpt>
      <trkpt lat="49.1694" lon="7.02766">
        <ele>236</ele>
        <time>2014-01-26T10:00:22Z</time>
      </trkpt>
      <trkpt lat="49.16948" lon="7.02763">
        <ele>237</ele>
        <time>2014-01-26T10:00:28Z</time>
      </trkpt>
      <trkpt lat="49.16956" lon="7.02762">
        <ele>239</ele>
        <time>2014-01-26T10:00:32Z</time>
      </trkpt>
      <trkpt lat="49.16965" lon="7.02761">
        <ele>241</ele>
        <time>2014-01-26T10:00:37Z</time>
      </trkpt>
      <trkpt lat="49.16971" lon="7.02757">
        <ele>241</ele>
        <time>2014-01-26T10:00:42Z</time>
      </trkpt>
      <trkpt lat="49.16979" lon="7.02754">
        <ele>242</ele>
        <time>2014-01-26T10:00:48Z</time>
      </trkpt>
      <trkpt lat="49.16987" lon="7.0275">
        <ele>242</ele>
        <time>2014-01-26T10:00:56Z</time>
      </trkpt>
      <trkpt lat="49.16996" lon="7.0275">
        <ele>240</ele>
        <time>2014-01-26T10:01:04Z</time>
      </trkpt>
      <trkpt lat="49.17003" lon="7.02746">
        <ele>233</ele>
        <time>2014-01-26T10:01:16Z</time>
      </trkpt>
      <trkpt lat="49.1701" lon="7.0274">
        <ele>227</ele>
        <time>2014-01-26T10:01:27Z</time>
      </trkpt>
      <trkpt lat="49.17019" lon="7.0274">
        <ele>223</ele>
        <time>2014-01-26T10:01:39Z</time>
      </trkpt>
      <trkpt lat="49.17028" lon="7.02737">
        <ele>226</ele>
        <time>2014-01-26T10:01:46Z</time>
      </trkpt>
      <trkpt lat="49.17035" lon="7.02736">
        <ele>221</ele>
        <time>2014-01-26T10:01:54Z</time>
      </trkpt>
      <trkpt lat="49.17041" lon="7.02734">
        <ele>221</ele>
        <time>2014-01-26T10:02:04Z</time>
      </trkpt>
      <trkpt lat="49.1705" lon="7.02733">
        <ele>225</ele>
        <time>2014-01-26T10:02:14Z</time>
      </trkpt>
      <trkpt lat="49.17059" lon="7.02729">
        <ele>225</ele>
        <time>2014-01-26T10:02:28Z</time>
      </trkpt>
      <trkpt lat="49.17068" lon="7.02718">
        <ele>227</ele>
        <time>2014-01-26T10:02:33Z</time>
      </trkpt>
      <trkpt lat="49.17075" lon="7.02716">
        <ele>224</ele>
        <time>2014-01-26T10:02:38Z</time>
      </trkpt>
      <trkpt lat="49.17082" lon="7.02713">
        <ele>217</ele>
        <time>2014-01-26T10:02:43Z</time>
      </trkpt>
      <trkpt lat="49.17088" lon="7.02705">
        <ele>218</ele>
        <time>2014-01-26T10:02:49Z</time>
      </trkpt>
      <trkpt lat="49.17092" lon="7.02694">
        <ele>214</ele>
        <time>2014-01-26T10:02:55Z</time>
      </trkpt>
      <trkpt lat="49.17096" lon="7.02684">
        <ele>213</ele>
        <time>2014-01-26T10:03:01Z</time>
      </trkpt>
      <trkpt lat="49.17098" lon="7.02671">
        <ele>218</ele>
        <time>2014-01-26T10:03:06Z</time>
      </trkpt>
      <trkpt lat="49.17101" lon="7.02658">
        <ele>217</ele>
        <time>2014-01-26T10:03:15Z</time>
      </trkpt>
      <trkpt lat="49.17099" lon="7.02646">
        <ele>220</ele>
        <time>2014-01-26T10:03:19Z</time>
      </trkpt>
      <trkpt lat="49.17101" lon="7.02634">
        <ele>218</ele>
        <time>2014-01-26T10:03:28Z</time>
      </trkpt>
      <trkpt lat="49.17102" lon="7.02621">
        <ele>214</ele>
        <time>2014-01-26T10:03:39Z</time>
      </trkpt>
      <trkpt lat="49.17101" lon="7.02609">
        <ele>211</ele>
        <time>2014-01-26T10:03:46Z</time>
      </trkpt>
      <trkpt lat="49.17101" lon="7.02596">
        <ele>208</ele>
        <time>2014-01-26T10:03:54Z</time>
      </trkpt>
      <trkpt lat="49.17099" lon="7.02584">
        <ele>202</ele>
        <time>2014-01-26T10:04:03Z</time>
      </trkpt>
      <trkpt lat="49.17097" lon="7.0257">
        <ele>206</ele>
        <time>2014-01-26T10:04:08Z</time>
      </trkpt>
      <trkpt lat="49.17098" lon="7.02557">
        <ele>208</ele>
        <time>2014-01-26T10:04:16Z</time>
      </trkpt>
      <trkpt lat="49.17099" lon="7.02544">
        <ele>209</ele>
        <time>2014-01-26T10:04:24Z</time>
      </trkpt>
      <trkpt lat="49.17101" lon="7.02532">
        <ele>204</ele>
        <time>2014-01-26T10:04:32Z</time>
      </trkpt>
      <trkpt lat="49.17097" lon="7.0252">
        <ele>207</ele>
        <time>2014-01-26T10:04:39Z</time>
      </trkpt>
      <trkpt lat="49.17095" lon="7.02509">
        <ele>209</ele>
        <time>2014-01-26T10:04:44Z</time>
      </trkpt>
      <trkpt lat="49.17095" lon="7.02496">
        <ele>208</ele>
        <time>2014-01-26T10:04:51Z</time>
      </trkpt>
      <trkpt lat="49.17098" lon="7.02484">
        <ele>202</ele>
        <time>2014-01-26T10:05:01Z</time>
      </trkpt>
      <trkpt lat="49.17098" lon="7.02473">
        <ele>203</ele>
        <time>2014-01-26T10:05:07Z</time>
      </trkpt>
      <trkpt lat="49.17099" lon="7.02461">
        <ele>205</ele>
        <time>2014-01-26T10:05:17Z</time>
      </trkpt>
      <trkpt lat="49.171" lon="7.02447">
        <ele>203</ele>
        <time>2014-01-26T10:05:26Z</time>
      </trkpt>
      <trkpt lat="49.171" lon="7.02438">
        <ele>205</ele>
        <time>2014-01-26T10:05:33Z</time>
      </trkpt>
      <trkpt lat="49.17097" lon="7.02423">
        <ele>210</ele>
        <time>2014-01-26T10:05:38Z</time>
      </trkpt>
      <trkpt lat="49.17099" lon="7.0241">
        <ele>201</ele>
        <time>2014-01-26T10:05:48Z</time>
      </trkpt>
      <trkpt lat="49.17104" lon="7.02398">
        <ele>191</ele>
        <time>2014-01-26T10:05:57Z</time>
      </trkpt>
      <trkpt lat="49.17105" lon="7.02386">
        <ele>193</ele>
        <time>2014-01-26T10:06:04Z</time>
      </trkpt>
      <trkpt lat="49.17102" lon="7.02374">
        <ele>199</ele>
        <time>2014-01-26T10:06:08Z</time>
      </trkpt>
      <trkpt lat="49.17097" lon="7.02363">
        <ele>202</ele>
        <time>2014-01-26T10:06:12Z</time>
      </trkpt>
      <trkpt lat="49.17089" lon="7.02351">
        <ele>207</ele>
        <time>2014-01-26T10:06:17Z</time>
      </trkpt>
      <trkpt lat="49.17081" lon="7.02338">
        <ele>211</ele>
        <time>2014-01-26T10:06:21Z</time>
      </trkpt>
      <trkpt lat="49.17074" lon="7.0233">
        <ele>214</ele>
        <time>2014-01-26T10:06:26Z</time>
      </trkpt>
      <trkpt lat="49.17067" lon="7.0232">
        <ele>217</ele>
        <time>2014-01-26T10:06:31Z</time>
      </trkpt>
      <trkpt lat="49.17061" lon="7.02312">
        <ele>219</ele>
        <time>2014-01-26T10:06:36Z</time>
      </trkpt>
      <trkpt lat="49.17054" lon="7.02306">
        <ele>222</ele>
        <time>2014-01-26T10:06:42Z</time>
      </trkpt>
      <trkpt lat="49.17047" lon="7.02301">
        <ele>224</ele>
        <time>2014-01-26T10:06:46Z</time>
      </trkpt>
      <trkpt lat="49.17039" lon="7.02296">
        <ele>226</ele>
        <time>2014-01-26T10:06:53Z</time>
      </trkpt>
      <trkpt lat="49.17046" lon="7.02291">
        <ele>229</ele>
        <time>2014-01-26T10:07:23Z</time>
      </trkpt>
      <trkpt lat="49.17054" lon="7.02296">
        <ele>230</ele>
        <time>2014-01-26T10:07:30Z</time>
      </trkpt>
      <trkpt lat="49.17061" lon="7.02298">
        <ele>232</ele>
        <time>2014-01-26T10:07:39Z</time>
      </trkpt>
      <trkpt lat="49.1707" lon="7.02303">
        <ele>234</ele>
        <time>2014-01-26T10:07:48Z</time>
      </trkpt>
      <trkpt lat="49.17078" lon="7.02306">
        <ele>233</ele>
        <time>2014-01-26T10:07:57Z</time>
      </trkpt>
      <trkpt lat="49.17086" lon="7.02311">
        <ele>233</ele>
        <time>2014-01-26T10:08:05Z</time>
      </trkpt>
      <trkpt lat="49.17094" lon="7.02316">
        <ele>232</ele>
        <time>2014-01-26T10:08:16Z</time>
      </trkpt>
      <trkpt lat="49.17102" lon="7.02317">
        <ele>231</ele>
        <time>2014-01-26T10:08:20Z</time>
      </trkpt>
      <trkpt lat="49.1711" lon="7.0232">
        <ele>230</ele>
        <time>2014-01-26T10:08:27Z</time>
      </trkpt>
      <trkpt lat="49.17119" lon="7.02323">
        <ele>228</ele>
        <time>2014-01-26T10:08:39Z</time>
      </trkpt>
      <trkpt lat="49.17126" lon="7.02327">
        <ele>224</ele>
        <time>2014-01-26T10:08:51Z</time>
      </trkpt>
      <trkpt lat="49.17132" lon="7.02337">
        <ele>227</ele>
        <time>2014-01-26T10:09:07Z</time>
      </trkpt>
      <trkpt lat="49.1714" lon="7.02339">
        <ele>220</ele>
        <time>2014-01-26T10:09:25Z</time>
      </trkpt>
      <trkpt lat="49.17146" lon="7.02349">
        <ele>224</ele>
        <time>2014-01-26T10:09:39Z</time>
      </trkpt>
      <trkpt lat="49.17153" lon="7.02356">
        <ele>224</ele>
        <time>2014-01-26T10:10:00Z</time>
      </trkpt>
      <trkpt lat="49.17156" lon="7.02368">
        <ele>224</ele>
        <time>2014-01-26T10:10:45Z</time>
      </trkpt>
      <trkpt lat="49.1716" lon="7.0238">
        <ele>227</ele>
        <time>2014-01-26T10:10:51Z</time>
      </trkpt>
      <trkpt lat="49.17163" lon="7.02389">
        <ele>226</ele>
        <time>2014-01-26T10:10:57Z</time>
      </trkpt>
      <trkpt lat="49.17166" lon="7.024">
        <ele>226</ele>
        <time>2014-01-26T10:11:01Z</time>
      </trkpt>
      <trkpt lat="49.17168" lon="7.0241">
        <ele>229</ele>
        <time>2014-01-26T10:11:05Z</time>
      </trkpt>
      <trkpt lat="49.17174" lon="7.02418">
        <ele>230</ele>
        <time>2014-01-26T10:11:11Z</time>
      </trkpt>
      <trkpt lat="49.1718" lon="7.02427">
        <ele>233</ele>
        <time>2014-01-26T10:11:18Z</time>
      </trkpt>
      <trkpt lat="49.17187" lon="7.02434">
        <ele>232</ele>
        <time>2014-01-26T10:11:30Z</time>
      </trkpt>
      <trkpt lat="49.17195" lon="7.02439">
        <ele>233</ele>
        <time>2014-01-26T10:11:37Z</time>
      </trkpt>
      <trkpt lat="49.17202" lon="7.02446">
        <ele>235</ele>
        <time>2014-01-26T10:11:54Z</time>
      </trkpt>
      <trkpt lat="49.17208" lon="7.02457">
        <ele>238</ele>
        <time>2014-01-26T10:12:02Z</time>
      </trkpt>
      <trkpt lat="49.17215" lon="7.02464">
        <ele>241</ele>
        <time>2014-01-26T10:12:09Z</time>
      </trkpt>
      <trkpt lat="49.17224" lon="7.02467">
        <ele>242</ele>
        <time>2014-01-26T10:12:16Z</time>
      </trkpt>
      <trkpt lat="49.17232" lon="7.02469">
        <ele>243</ele>
        <time>2014-01-26T10:12:31Z</time>
      </trkpt>
      <trkpt lat="49.17236" lon="7.0248">
        <ele>244</ele>
        <time>2014-01-26T10:12:37Z</time>
      </trkpt>
      <trkpt lat="49.17245" lon="7.02483">
        <ele>245</ele>
        <time>2014-01-26T10:12:43Z</time>
      </trkpt>
      <trkpt lat="49.17252" lon="7.02485">
        <ele>246</ele>
        <time>2014-01-26T10:12:51Z</time>
      </trkpt>
      <trkpt lat="49.17259" lon="7.02491">
        <ele>249</ele>
        <time>2014-01-26T10:12:58Z</time>
      </trkpt>
      <trkpt lat="49.17265" lon="7.025">
        <ele>250</ele>
        <time>2014-01-26T10:13:03Z</time>
      </trkpt>
      <trkpt lat="49.17275" lon="7.02509">
        <ele>250</ele>
        <time>2014-01-26T10:13:08Z</time>
      </trkpt>
      <trkpt lat="49.17284" lon="7.02512">
        <ele>247</ele>
        <time>2014-01-26T10:13:12Z</time>
      </trkpt>
      <trkpt lat="49.17294" lon="7.02515">
        <ele>249</ele>
        <time>2014-01-26T10:13:17Z</time>
      </trkpt>
      <trkpt lat="49.17307" lon="7.02519">
        <ele>249</ele>
        <time>2014-01-26T10:13:21Z</time>
      </trkpt>
      <trkpt lat="49.17315" lon="7.0252">
        <ele>249</ele>
        <time>2014-01-26T10:13:28Z</time>
      </trkpt>
      <trkpt lat="49.17325" lon="7.0252">
        <ele>251</ele>
        <time>2014-01-26T10:13:33Z</time>
      </trkpt>
      <trkpt lat="49.17333" lon="7.02521">
        <ele>251</ele>
        <time>2014-01-26T10:13:39Z</time>
      </trkpt>
      <trkpt lat="49.17342" lon="7.02525">
        <ele>251</ele>
        <time>2014-01-26T10:13:44Z</time>
      </trkpt>
      <trkpt lat="49.1735" lon="7.02525">
        <ele>250</ele>
        <time>2014-01-26T10:13:50Z</time>
      </trkpt>
      <trkpt lat="49.17358" lon="7.02529">
        <ele>252</ele>
        <time>2014-01-26T10:13:54Z</time>
      </trkpt>
      <trkpt lat="49.17371" lon="7.02536">
        <ele>253</ele>
        <time>2014-01-26T10:13:59Z</time>
      </trkpt>
      <trkpt lat="49.17382" lon="7.02541">
        <ele>254</ele>
        <time>2014-01-26T10:14:04Z</time>
      </trkpt>
      <trkpt lat="49.1739" lon="7.02546">
        <ele>252</ele>
        <time>2014-01-26T10:14:09Z</time>
      </trkpt>
      <trkpt lat="49.17399" lon="7.02547">
        <ele>252</ele>
        <time>2014-01-26T10:14:16Z</time>
      </trkpt>
      <trkpt lat="49.17408" lon="7.02551">
        <ele>250</ele>
        <time>2014-01-26T10:14:21Z</time>
      </trkpt>
      <trkpt lat="49.17417" lon="7.02557">
        <ele>249</ele>
        <time>2014-01-26T10:14:26Z</time>
      </trkpt>
      <trkpt lat="49.17423" lon="7.02562">
        <ele>250</ele>
        <time>2014-01-26T10:14:31Z</time>
      </trkpt>
      <trkpt lat="49.17431" lon="7.02567">
        <ele>252</ele>
        <time>2014-01-26T10:14:35Z</time>
      </trkpt>
      <trkpt lat="49.1744" lon="7.02569">
        <ele>252</ele>
        <time>2014-01-26T10:14:41Z</time>
      </trkpt>
      <trkpt lat="49.17449" lon="7.02571">
        <ele>252</ele>
        <time>2014-01-26T10:14:45Z</time>
      </trkpt>
      <trkpt lat="49.17456" lon="7.02575">
        <ele>249</ele>
        <time>2014-01-26T10:14:50Z</time>
      </trkpt>
      <trkpt lat="49.17467" lon="7.02581">
        <ele>250</ele>
        <time>2014-01-26T10:14:55Z</time>
      </trkpt>
      <trkpt lat="49.17474" lon="7.02587">
        <ele>250</ele>
        <time>2014-01-26T10:15:04Z</time>
      </trkpt>
      <trkpt lat="49.17481" lon="7.02592">
        <ele>247</ele>
        <time>2014-01-26T10:15:13Z</time>
      </trkpt>
      <trkpt lat="49.17488" lon="7.02596">
        <ele>247</ele>
        <time>2014-01-26T10:15:18Z</time>
      </trkpt>
      <trkpt lat="49.17495" lon="7.02599">
        <ele>242</ele>
        <time>2014-01-26T10:15:24Z</time>
      </trkpt>
      <trkpt lat="49.17503" lon="7.02606">
        <ele>244</ele>
        <time>2014-01-26T10:15:36Z</time>
      </trkpt>
      <trkpt lat="49.17511" lon="7.02602">
        <ele>240</ele>
        <time>2014-01-26T10:15:40Z</time>
      </trkpt>
      <trkpt lat="49.17518" lon="7.02604">
        <ele>236</ele>
        <time>2014-01-26T10:15:46Z</time>
      </trkpt>
      <trkpt lat="49.17526" lon="7.02611">
        <ele>235</ele>
        <time>2014-01-26T10:15:51Z</time>
      </trkpt>
      <trkpt lat="49.17534" lon="7.02616">
        <ele>235</ele>
        <time>2014-01-26T10:15:56Z</time>
      </trkpt>
      <trkpt lat="49.17541" lon="7.02624">
        <ele>234</ele>
        <time>2014-01-26T10:16:02Z</time>
      </trkpt>
      <trkpt lat="49.1755" lon="7.02625">
        <ele>232</ele>
        <time>2014-01-26T10:16:08Z</time>
      </trkpt>
      <trkpt lat="49.17558" lon="7.02631">
        <ele>231</ele>
        <time>2014-01-26T10:16:13Z</time>
      </trkpt>
      <trkpt lat="49.17564" lon="7.02639">
        <ele>233</ele>
        <time>2014-01-26T10:16:18Z</time>
      </trkpt>
      <trkpt lat="49.17572" lon="7.02647">
        <ele>235</ele>
        <time>2014-01-26T10:16:22Z</time>
      </trkpt>
      <trkpt lat="49.17577" lon="7.02656">
        <ele>233</ele>
        <time>2014-01-26T10:16:28Z</time>
      </trkpt>
      <trkpt lat="49.17583" lon="7.02664">
        <ele>230</ele>
        <time>2014-01-26T10:16:33Z</time>
      </trkpt>
      <trkpt lat="49.17589" lon="7.02673">
        <ele>229</ele>
        <time>2014-01-26T10:16:41Z</time>
      </trkpt>
      <trkpt lat="49.17597" lon="7.02676">
        <ele>225</ele>
        <time>2014-01-26T10:16:48Z</time>
      </trkpt>
      <trkpt lat="49.17604" lon="7.0268">
        <ele>222</ele>
        <time>2014-01-26T10:16:54Z</time>
      </trkpt>
      <trkpt lat="49.17611" lon="7.02687">
        <ele>221</ele>
        <time>2014-01-26T10:17:00Z</time>
      </trkpt>
      <trkpt lat="49.17616" lon="7.02697">
        <ele>221</ele>
        <time>2014-01-26T10:17:08Z</time>
      </trkpt>
      <trkpt lat="49.17623" lon="7.02704">
        <ele>213</ele>
        <time>2014-01-26T10:17:17Z</time>
      </trkpt>
      <trkpt lat="49.1763" lon="7.02711">
        <ele>211</ele>
        <time>2014-01-26T10:17:25Z</time>
      </trkpt>
      <trkpt lat="49.17636" lon="7.0272">
        <ele>211</ele>
        <time>2014-01-26T10:17:32Z</time>
      </trkpt>
      <trkpt lat="49.17642" lon="7.02729">
        <ele>211</ele>
        <time>2014-01-26T10:17:38Z</time>
      </trkpt>
      <trkpt lat="49.17644" lon="7.02742">
        <ele>213</ele>
        <time>2014-01-26T10:17:44Z</time>
      </trkpt>
      <trkpt lat="49.17649" lon="7.02752">
        <ele>216</ele>
        <time>2014-01-26T10:17:50Z</time>
      </trkpt>
      <trkpt lat="49.17654" lon="7.02763">
        <ele>218</ele>
        <time>2014-01-26T10:17:55Z</time>
      </trkpt>
      <trkpt lat="49.1766" lon="7.02766">
        <ele>214</ele>
        <time>2014-01-26T10:17:59Z</time>
      </trkpt>
      <trkpt lat="49.1767" lon="7.02755">
        <ele>205</ele>
        <time>2014-01-26T10:18:02Z</time>
      </trkpt>
      <trkpt lat="49.17679" lon="7.02754">
        <ele>196</ele>
        <time>2014-01-26T10:18:11Z</time>
      </trkpt>
      <trkpt lat="49.17687" lon="7.02758">
        <ele>192</ele>
        <time>2014-01-26T10:18:19Z</time>
      </trkpt>
      <trkpt lat="49.17694" lon="7.02763">
        <ele>191</ele>
        <time>2014-01-26T10:18:27Z</time>
      </trkpt>
      <trkpt lat="49.17699" lon="7.02774">
        <ele>195</ele>
        <time>2014-01-26T10:18:39Z</time>
      </trkpt>
      <trkpt lat="49.17702" lon="7.02784">
        <ele>192</ele>
        <time>2014-01-26T10:18:46Z</time>
      </trkpt>
      <trkpt lat="49.17708" lon="7.02794">
        <ele>194</ele>
        <time>2014-01-26T10:18:51Z</time>
      </trkpt>
      <trkpt lat="49.17713" lon="7.02804">
        <ele>193</ele>
        <time>2014-01-26T10:18:59Z</time>
      </trkpt>
      <trkpt lat="49.17719" lon="7.02814">
        <ele>189</ele>
        <time>2014-01-26T10:19:07Z</time>
      </trkpt>
      <trkpt lat="49.17724" lon="7.02824">
        <ele>186</ele>
        <time>2014-01-26T10:19:15Z</time>
      </trkpt>
      <trkpt lat="49.17725" lon="7.02836">
        <ele>187</ele>
        <time>2014-01-26T10:19:22Z</time>
      </trkpt>
      <trkpt lat="49.17734" lon="7.02838">
        <ele>184</ele>
        <time>2014-01-26T10:19:31Z</time>
      </trkpt>
      <trkpt lat="49.17739" lon="7.02848">
        <ele>190</ele>
        <time>2014-01-26T10:19:38Z</time>
      </trkpt>
      <trkpt lat="49.17744" lon="7.0286">
        <ele>189</ele>
        <time>2014-01-26T10:19:42Z</time>
      </trkpt>
      <trkpt lat="49.17746" lon="7.02872">
        <ele>188</ele>
        <time>2014-01-26T10:19:52Z</time>
      </trkpt>
      <trkpt lat="49.17748" lon="7.02884">
        <ele>191</ele>
        <time>2014-01-26T10:19:56Z</time>
      </trkpt>
      <trkpt lat="49.1775" lon="7.02896">
        <ele>191</ele>
        <time>2014-01-26T10:20:01Z</time>
      </trkpt>
      <trkpt lat="49.17751" lon="7.02907">
        <ele>190</ele>
        <time>2014-01-26T10:20:08Z</time>
      </trkpt>
      <trkpt lat="49.17757" lon="7.02914">
        <ele>193</ele>
        <time>2014-01-26T10:20:13Z</time>
      </trkpt>
      <trkpt lat="49.17765" lon="7.02921">
        <ele>199</ele>
        <time>2014-01-26T10:20:17Z</time>
      </trkpt>
      <trkpt lat="49.17771" lon="7.02932">
        <ele>200</ele>
        <time>2014-01-26T10:20:21Z</time>
      </trkpt>
      <trkpt lat="49.17779" lon="7.02932">
        <ele>197</ele>
        <time>2014-01-26T10:20:26Z</time>
      </trkpt>
      <trkpt lat="49.17785" lon="7.02943">
        <ele>195</ele>
        <time>2014-01-26T10:20:33Z</time>
      </trkpt>
      <trkpt lat="49.17793" lon="7.02944">
        <ele>194</ele>
        <time>2014-01-26T10:20:38Z</time>
      </trkpt>
      <trkpt lat="49.17801" lon="7.02949">
        <ele>195</ele>
        <time>2014-01-26T10:20:42Z</time>
      </trkpt>
      <trkpt lat="49.17806" lon="7.02944">
        <ele>190</ele>
        <time>2014-01-26T10:20:47Z</time>
      </trkpt>
      <trkpt lat="49.17814" lon="7.02948">
        <ele>185</ele>
        <time>2014-01-26T10:20:52Z</time>
      </trkpt>
      <trkpt lat="49.17822" lon="7.02952">
        <ele>182</ele>
        <time>2014-01-26T10:21:00Z</time>
      </trkpt>
      <trkpt lat="49.17832" lon="7.0295">
        <ele>180</ele>
        <time>2014-01-26T10:21:05Z</time>
      </trkpt>
      <trkpt lat="49.1784" lon="7.02952">
        <ele>172</ele>
        <time>2014-01-26T10:21:17Z</time>
      </trkpt>
      <trkpt lat="49.17844" lon="7.02962">
        <ele>175</ele>
        <time>2014-01-26T10:21:21Z</time>
      </trkpt>
      <trkpt lat="49.17844" lon="7.02975">
        <ele>180</ele>
        <time>2014-01-26T10:21:26Z</time>
      </trkpt>
      <trkpt lat="49.17846" lon="7.02987">
        <ele>183</ele>
        <time>2014-01-26T10:21:35Z</time>
      </trkpt>
      <trkpt lat="49.17849" lon="7.03">
        <ele>184</ele>
        <time>2014-01-26T10:21:44Z</time>
      </trkpt>
      <trkpt lat="49.17853" lon="7.03012">
        <ele>189</ele>
        <time>2014-01-26T10:21:58Z</time>
      </trkpt>
      <trkpt lat="49.17856" lon="7.03024">
        <ele>189</ele>
        <time>2014-01-26T10:22:07Z</time>
      </trkpt>
      <trkpt lat="49.17861" lon="7.03034">
        <ele>186</ele>
        <time>2014-01-26T10:22:21Z</time>
      </trkpt>
      <trkpt lat="49.17864" lon="7.03046">
        <ele>192</ele>
        <time>2014-01-26T10:22:28Z</time>
      </trkpt>
      <trkpt lat="49.17869" lon="7.03056">
        <ele>195</ele>
        <time>2014-01-26T10:22:41Z</time>
      </trkpt>
      <trkpt lat="49.17873" lon="7.03066">
        <ele>199</ele>
        <time>2014-01-26T10:22:53Z</time>
      </trkpt>
      <trkpt lat="49.17879" lon="7.03077">
        <ele>203</ele>
        <time>2014-01-26T10:23:07Z</time>
      </trkpt>
      <trkpt lat="49.17887" lon="7.03078">
        <ele>206</ele>
        <time>2014-01-26T10:23:15Z</time>
      </trkpt>
      <trkpt lat="49.17894" lon="7.03072">
        <ele>205</ele>
        <time>2014-01-26T10:23:32Z</time>
      </trkpt>
      <trkpt lat="49.17902" lon="7.03066">
        <ele>199</ele>
        <time>2014-01-26T10:23:37Z</time>
      </trkpt>
      <trkpt lat="49.17911" lon="7.03064">
        <ele>198</ele>
        <time>2014-01-26T10:23:44Z</time>
      </trkpt>
      <trkpt lat="49.17918" lon="7.03058">
        <ele>188</ele>
        <time>2014-01-26T10:23:55Z</time>
      </trkpt>
      <trkpt lat="49.17926" lon="7.03052">
        <ele>184</ele>
        <time>2014-01-26T10:24:00Z</time>
      </trkpt>
      <trkpt lat="49.17932" lon="7.03044">
        <ele>185</ele>
        <time>2014-01-26T10:24:04Z</time>
      </trkpt>
      <trkpt lat="49.17941" lon="7.03039">
        <ele>185</ele>
        <time>2014-01-26T10:24:08Z</time>
      </trkpt>
      <trkpt lat="49.17947" lon="7.03032">
        <ele>186</ele>
        <time>2014-01-26T10:24:12Z</time>
      </trkpt>
      <trkpt lat="49.17953" lon="7.03026">
        <ele>188</ele>
        <time>2014-01-26T10:24:17Z</time>
      </trkpt>
      <trkpt lat="49.1796" lon="7.03019">
        <ele>186</ele>
        <time>2014-01-26T10:24:22Z</time>
      </trkpt>
      <trkpt lat="49.17968" lon="7.03015">
        <ele>190</ele>
        <time>2014-01-26T10:24:27Z</time>
      </trkpt>
      <trkpt lat="49.17978" lon="7.03012">
        <ele>196</ele>
        <time>2014-01-26T10:24:32Z</time>
      </trkpt>
      <trkpt lat="49.17986" lon="7.03005">
        <ele>200</ele>
        <time>2014-01-26T10:24:47Z</time>
      </trkpt>
      <trkpt lat="49.17991" lon="7.02996">
        <ele>197</ele>
        <time>2014-01-26T10:24:51Z</time>
      </trkpt>
      <trkpt lat="49.17993" lon="7.02984">
        <ele>194</ele>
        <time>2014-01-26T10:24:59Z</time>
      </trkpt>
      <trkpt lat="49.17997" lon="7.02972">
        <ele>194</ele>
        <time>2014-01-26T10:25:05Z</time>
      </trkpt>
      <trkpt lat="49.18002" lon="7.02963">
        <ele>197</ele>
        <time>2014-01-26T10:25:11Z</time>
      </trkpt>
      <trkpt lat="49.18009" lon="7.0296">
        <ele>203</ele>
        <time>2014-01-26T10:25:16Z</time>
      </trkpt>
      <trkpt lat="49.18016" lon="7.02952">
        <ele>217</ele>
        <time>2014-01-26T10:27:24Z</time>
      </trkpt>
      <trkpt lat="49.18021" lon="7.02942">
        <ele>222</ele>
        <time>2014-01-26T10:28:13Z</time>
      </trkpt>
      <trkpt lat="49.18024" lon="7.02931">
        <ele>226</ele>
        <time>2014-01-26T10:29:42Z</time>
      </trkpt>
      <trkpt lat="49.18029" lon="7.02919">
        <ele>235</ele>
        <time>2014-01-26T10:32:05Z</time>
      </trkpt>
      <trkpt lat="49.18032" lon="7.02907">
        <ele>239</ele>
        <time>2014-01-26T10:32:12Z</time>
      </trkpt>
      <trkpt lat="49.18032" lon="7.02894">
        <ele>240</ele>
        <time>2014-01-26T10:32:18Z</time>
      </trkpt>
      <trkpt lat="49.18031" lon="7.0288">
        <ele>240</ele>
        <time>2014-01-26T10:32:28Z</time>
      </trkpt>
      <trkpt lat="49.18025" lon="7.02871">
        <ele>240</ele>
        <time>2014-01-26T10:32:36Z</time>
      </trkpt>
      <trkpt lat="49.18017" lon="7.02867">
        <ele>242</ele>
        <time>2014-01-26T10:32:48Z</time>
      </trkpt>
      <trkpt lat="49.1801" lon="7.02862">
        <ele>246</ele>
        <time>2014-01-26T10:32:53Z</time>
      </trkpt>
      <trkpt lat="49.18002" lon="7.02856">
        <ele>246</ele>
        <time>2014-01-26T10:33:02Z</time>
      </trkpt>
      <trkpt lat="49.17995" lon="7.02849">
        <ele>250</ele>
        <time>2014-01-26T10:33:23Z</time>
      </trkpt>
      <trkpt lat="49.17989" lon="7.02841">
        <ele>249</ele>
        <time>2014-01-26T10:33:35Z</time>
      </trkpt>
      <trkpt lat="49.17984" lon="7.02833">
        <ele>246</ele>
        <time>2014-01-26T10:33:40Z</time>
      </trkpt>
      <trkpt lat="49.17977" lon="7.02827">
        <ele>246</ele>
        <time>2014-01-26T10:33:52Z</time>
      </trkpt>
      <trkpt lat="49.1797" lon="7.0282">
        <ele>246</ele>
        <time>2014-01-26T10:34:00Z</time>
      </trkpt>
      <trkpt lat="49.17963" lon="7.02813">
        <ele>245</ele>
        <time>2014-01-26T10:34:05Z</time>
      </trkpt>
      <trkpt lat="49.17955" lon="7.02807">
        <ele>243</ele>
        <time>2014-01-26T10:34:13Z</time>
      </trkpt>
      <trkpt lat="49.17949" lon="7.02799">
        <ele>243</ele>
        <time>2014-01-26T10:34:21Z</time>
      </trkpt>
      <trkpt lat="49.17943" lon="7.02789">
        <ele>237</ele>
        <time>2014-01-26T10:34:31Z</time>
      </trkpt>
      <trkpt lat="49.17936" lon="7.02781">
        <ele>235</ele>
        <time>2014-01-26T10:34:43Z</time>
      </trkpt>
      <trkpt lat="49.17929" lon="7.02771">
        <ele>228</ele>
        <time>2014-01-26T10:34:51Z</time>
      </trkpt>
      <trkpt lat="49.17923" lon="7.02764">
        <ele>228</ele>
        <time>2014-01-26T10:34:57Z</time>
      </trkpt>
      <trkpt lat="49.17915" lon="7.02759">
        <ele>231</ele>
        <time>2014-01-26T10:35:09Z</time>
      </trkpt>
      <trkpt lat="49.17907" lon="7.02755">
        <ele>234</ele>
        <time>2014-01-26T10:35:21Z</time>
      </trkpt>
      <trkpt lat="49.17899" lon="7.02747">
        <ele>235</ele>
        <time>2014-01-26T10:35:25Z</time>
      </trkpt>
      <trkpt lat="49.17892" lon="7.02743">
        <ele>236</ele>
        <time>2014-01-26T10:35:33Z</time>
      </trkpt>
      <trkpt lat="49.17885" lon="7.02735">
        <ele>236</ele>
        <time>2014-01-26T10:35:38Z</time>
      </trkpt>
      <trkpt lat="49.17879" lon="7.02725">
        <ele>233</ele>
        <time>2014-01-26T10:35:45Z</time>
      </trkpt>
      <trkpt lat="49.17872" lon="7.02721">
        <ele>235</ele>
        <time>2014-01-26T10:35:50Z</time>
      </trkpt>
      <trkpt lat="49.17865" lon="7.02714">
        <ele>234</ele>
        <time>2014-01-26T10:35:56Z</time>
      </trkpt>
      <trkpt lat="49.17858" lon="7.02705">
        <ele>234</ele>
        <time>2014-01-26T10:36:01Z</time>
      </trkpt>
      <trkpt lat="49.1785" lon="7.02703">
        <ele>236</ele>
        <time>2014-01-26T10:36:11Z</time>
      </trkpt>
      <trkpt lat="49.17842" lon="7.02698">
        <ele>238</ele>
        <time>2014-01-26T10:36:28Z</time>
      </trkpt>
      <trkpt lat="49.17835" lon="7.02689">
        <ele>237</ele>
        <time>2014-01-26T10:36:40Z</time>
      </trkpt>
      <trkpt lat="49.17829" lon="7.02683">
        <ele>234</ele>
        <time>2014-01-26T10:36:49Z</time>
      </trkpt>
      <trkpt lat="49.17821" lon="7.0268">
        <ele>231</ele>
        <time>2014-01-26T10:36:56Z</time>
      </trkpt>
      <trkpt lat="49.17814" lon="7.02676">
        <ele>230</ele>
        <time>2014-01-26T10:37:02Z</time>
      </trkpt>
      <trkpt lat="49.17806" lon="7.02671">
        <ele>233</ele>
        <time>2014-01-26T10:37:07Z</time>
      </trkpt>
      <trkpt lat="49.17798" lon="7.02665">
        <ele>236</ele>
        <time>2014-01-26T10:37:11Z</time>
      </trkpt>
      <trkpt lat="49.17791" lon="7.0266">
        <ele>235</ele>
        <time>2014-01-26T10:37:23Z</time>
      </trkpt>
      <trkpt lat="49.17784" lon="7.02652">
        <ele>235</ele>
        <time>2014-01-26T10:37:33Z</time>
      </trkpt>
      <trkpt lat="49.17778" lon="7.02646">
        <ele>232</ele>
        <time>2014-01-26T10:37:39Z</time>
      </trkpt>
      <trkpt lat="49.1777" lon="7.0264">
        <ele>230</ele>
        <time>2014-01-26T10:37:44Z</time>
      </trkpt>
      <trkpt lat="49.17764" lon="7.02632">
        <ele>223</ele>
        <time>2014-01-26T10:37:54Z</time>
      </trkpt>
      <trkpt lat="49.17756" lon="7.0263">
        <ele>224</ele>
        <time>2014-01-26T10:38:02Z</time>
      </trkpt>
      <trkpt lat="49.17749" lon="7.02626">
        <ele>228</ele>
        <time>2014-01-26T10:38:07Z</time>
      </trkpt>
      <trkpt lat="49.17741" lon="7.0262">
        <ele>230</ele>
        <time>2014-01-26T10:38:15Z</time>
      </trkpt>
      <trkpt lat="49.17733" lon="7.02619">
        <ele>231</ele>
        <time>2014-01-26T10:38:20Z</time>
      </trkpt>
      <trkpt lat="49.17725" lon="7.02614">
        <ele>234</ele>
        <time>2014-01-26T10:38:27Z</time>
      </trkpt>
      <trkpt lat="49.17718" lon="7.02608">
        <ele>230</ele>
        <time>2014-01-26T10:38:35Z</time>
      </trkpt>
      <trkpt lat="49.1771" lon="7.02608">
        <ele>233</ele>
        <time>2014-01-26T10:38:42Z</time>
      </trkpt>
      <trkpt lat="49.17703" lon="7.02603">
        <ele>237</ele>
        <time>2014-01-26T10:38:47Z</time>
      </trkpt>
      <trkpt lat="49.17695" lon="7.02596">
        <ele>238</ele>
        <time>2014-01-26T10:38:52Z</time>
      </trkpt>
      <trkpt lat="49.17688" lon="7.02591">
        <ele>239</ele>
        <time>2014-01-26T10:38:57Z</time>
      </trkpt>
      <trkpt lat="49.1768" lon="7.02586">
        <ele>236</ele>
        <time>2014-01-26T10:39:02Z</time>
      </trkpt>
      <trkpt lat="49.17673" lon="7.02579">
        <ele>236</ele>
        <time>2014-01-26T10:39:08Z</time>
      </trkpt>
      <trkpt lat="49.17665" lon="7.02575">
        <ele>237</ele>
        <time>2014-01-26T10:39:16Z</time>
      </trkpt>
      <trkpt lat="49.17658" lon="7.02572">
        <ele>238</ele>
        <time>2014-01-26T10:39:21Z</time>
      </trkpt>
      <trkpt lat="49.17651" lon="7.02566">
        <ele>241</ele>
        <time>2014-01-26T10:39:30Z</time>
      </trkpt>
      <trkpt lat="49.17645" lon="7.02557">
        <ele>236</ele>
        <time>2014-01-26T10:39:39Z</time>
      </trkpt>
      <trkpt lat="49.17637" lon="7.02552">
        <ele>238</ele>
        <time>2014-01-26T10:39:48Z</time>
      </trkpt>
      <trkpt lat="49.1763" lon="7.02549">
        <ele>238</ele>
        <time>2014-01-26T10:40:01Z</time>
      </trkpt>
      <trkpt lat="49.17621" lon="7.02546">
        <ele>240</ele>
        <time>2014-01-26T10:40:12Z</time>
      </trkpt>
      <trkpt lat="49.17613" lon="7.02545">
        <ele>239</ele>
        <time>2014-01-26T10:40:19Z</time>
      </trkpt>
      <trkpt lat="49.17606" lon="7.02537">
        <ele>236</ele>
        <time>2014-01-26T10:40:28Z</time>
      </trkpt>
      <trkpt lat="49.17599" lon="7.02531">
        <ele>238</ele>
        <time>2014-01-26T10:40:39Z</time>
      </trkpt>
      <trkpt lat="49.17592" lon="7.02524">
        <ele>240</ele>
        <time>2014-01-26T10:40:46Z</time>
      </trkpt>
      <trkpt lat="49.17587" lon="7.02514">
        <ele>235</ele>
        <time>2014-01-26T10:40:54Z</time>
      </trkpt>
      <trkpt lat="49.17579" lon="7.02507">
        <ele>234</ele>
        <time>2014-01-26T10:41:02Z</time>
      </trkpt>
      <trkpt lat="49.17571" lon="7.02505">
        <ele>235</ele>
        <time>2014-01-26T10:41:12Z</time>
      </trkpt>
      <trkpt lat="49.17564" lon="7.02499">
        <ele>234</ele>
        <time>2014-01-26T10:41:26Z</time>
      </trkpt>
      <trkpt lat="49.17556" lon="7.02496">
        <ele>230</ele>
        <time>2014-01-26T10:41:34Z</time>
      </trkpt>
      <trkpt lat="49.17548" lon="7.02504">
        <ele>224</ele>
        <time>2014-01-26T10:41:51Z</time>
      </trkpt>
      <trkpt lat="49.17542" lon="7.02511">
        <ele>225</ele>
        <time>2014-01-26T10:42:00Z</time>
      </trkpt>
      <trkpt lat="49.17534" lon="7.02511">
        <ele>224</ele>
        <time>2014-01-26T10:42:08Z</time>
      </trkpt>
      <trkpt lat="49.17524" lon="7.02508">
        <ele>225</ele>
        <time>2014-01-26T10:42:13Z</time>
      </trkpt>
      <trkpt lat="49.17517" lon="7.02502">
        <ele>217</ele>
        <time>2014-01-26T10:42:25Z</time>
      </trkpt>
      <trkpt lat="49.17509" lon="7.02497">
        <ele>219</ele>
        <time>2014-01-26T10:42:31Z</time>
      </trkpt>
      <trkpt lat="49.17501" lon="7.02494">
        <ele>215</ele>
        <time>2014-01-26T10:42:38Z</time>
      </trkpt>
      <trkpt lat="49.17493" lon="7.02492">
        <ele>215</ele>
        <time>2014-01-26T10:42:49Z</time>
      </trkpt>
      <trkpt lat="49.17485" lon="7.02487">
        <ele>207</ele>
        <time>2014-01-26T10:42:58Z</time>
      </trkpt>
      <trkpt lat="49.17478" lon="7.02479">
        <ele>205</ele>
        <time>2014-01-26T10:43:07Z</time>
      </trkpt>
      <trkpt lat="49.1747" lon="7.02475">
        <ele>204</ele>
        <time>2014-01-26T10:43:14Z</time>
      </trkpt>
      <trkpt lat="49.17464" lon="7.02466">
        <ele>200</ele>
        <time>2014-01-26T10:43:27Z</time>
      </trkpt>
      <trkpt lat="49.17455" lon="7.02465">
        <ele>204</ele>
        <time>2014-01-26T10:43:32Z</time>
      </trkpt>
      <trkpt lat="49.17449" lon="7.02456">
        <ele>205</ele>
        <time>2014-01-26T10:43:41Z</time>
      </trkpt>
      <trkpt lat="49.1744" lon="7.02455">
        <ele>207</ele>
        <time>2014-01-26T10:43:46Z</time>
      </trkpt>
      <trkpt lat="49.17433" lon="7.02448">
        <ele>203</ele>
        <time>2014-01-26T10:43:53Z</time>
      </trkpt>
      <trkpt lat="49.17426" lon="7.02444">
        <ele>203</ele>
        <time>2014-01-26T10:43:59Z</time>
      </trkpt>
      <trkpt lat="49.17418" lon="7.02442">
        <ele>203</ele>
        <time>2014-01-26T10:44:04Z</time>
      </trkpt>
      <trkpt lat="49.17414" lon="7.02432">
        <ele>195</ele>
        <time>2014-01-26T10:44:16Z</time>
      </trkpt>
      <trkpt lat="49.17406" lon="7.02431">
        <ele>195</ele>
        <time>2014-01-26T10:44:20Z</time>
      </trkpt>
      <trkpt lat="49.17398" lon="7.02427">
        <ele>195</ele>
        <time>2014-01-26T10:44:28Z</time>
      </trkpt>
      <trkpt lat="49.17391" lon="7.02423">
        <ele>197</ele>
        <time>2014-01-26T10:44:34Z</time>
      </trkpt>
      <trkpt lat="49.17382" lon="7.0242">
        <ele>191</ele>
        <time>2014-01-26T10:44:41Z</time>
      </trkpt>
      <trkpt lat="49.17377" lon="7.0241">
        <ele>190</ele>
        <time>2014-01-26T10:44:49Z</time>
      </trkpt>
      <trkpt lat="49.17368" lon="7.02405">
        <ele>189</ele>
        <time>2014-01-26T10:44:56Z</time>
      </trkpt>
      <trkpt lat="49.17362" lon="7.024">
        <ele>187</ele>
        <time>2014-01-26T10:45:04Z</time>
      </trkpt>
      <trkpt lat="49.17353" lon="7.02396">
        <ele>189</ele>
        <time>2014-01-26T10:45:09Z</time>
      </trkpt>
      <trkpt lat="49.17346" lon="7.02393">
        <ele>189</ele>
        <time>2014-01-26T10:45:15Z</time>
      </trkpt>
      <trkpt lat="49.1734" lon="7.02385">
        <ele>190</ele>
        <time>2014-01-26T10:45:21Z</time>
      </trkpt>
      <trkpt lat="49.17332" lon="7.0238">
        <ele>187</ele>
        <time>2014-01-26T10:45:31Z</time>
      </trkpt>
      <trkpt lat="49.17324" lon="7.02374">
        <ele>188</ele>
        <time>2014-01-26T10:45:39Z</time>
      </trkpt>
      <trkpt lat="49.17316" lon="7.0237">
        <ele>186</ele>
        <time>2014-01-26T10:45:45Z</time>
      </trkpt>
      <trkpt lat="49.17307" lon="7.02368">
        <ele>190</ele>
        <time>2014-01-26T10:45:49Z</time>
      </trkpt>
      <trkpt lat="49.17299" lon="7.02369">
        <ele>191</ele>
        <time>2014-01-26T10:45:55Z</time>
      </trkpt>
      <trkpt lat="49.17291" lon="7.02367">
        <ele>195</ele>
        <time>2014-01-26T10:46:04Z</time>
      </trkpt>
      <trkpt lat="49.17283" lon="7.0236">
        <ele>195</ele>
        <time>2014-01-26T10:46:08Z</time>
      </trkpt>
      <trkpt lat="49.17276" lon="7.02353">
        <ele>193</ele>
        <time>2014-01-26T10:46:16Z</time>
      </trkpt>
      <trkpt lat="49.17268" lon="7.02347">
        <ele>188</ele>
        <time>2014-01-26T10:46:25Z</time>
      </trkpt>
      <trkpt lat="49.1726" lon="7.02342">
        <ele>187</ele>
        <time>2014-01-26T10:46:30Z</time>
      </trkpt>
      <trkpt lat="49.17252" lon="7.02338">
        <ele>188</ele>
        <time>2014-01-26T10:46:35Z</time>
      </trkpt>
      <trkpt lat="49.17245" lon="7.02332">
        <ele>187</ele>
        <time>2014-01-26T10:46:41Z</time>
      </trkpt>
      <trkpt lat="49.17237" lon="7.0233">
        <ele>187</ele>
        <time>2014-01-26T10:46:47Z</time>
      </trkpt>
      <trkpt lat="49.17229" lon="7.02326">
        <ele>185</ele>
        <time>2014-01-26T10:46:52Z</time>
      </trkpt>
      <trkpt lat="49.17222" lon="7.02321">
        <ele>186</ele>
        <time>2014-01-26T10:46:58Z</time>
      </trkpt>
      <trkpt lat="49.17213" lon="7.02318">
        <ele>187</ele>
        <time>2014-01-26T10:47:03Z</time>
      </trkpt>
      <trkpt lat="49.17205" lon="7.02316">
        <ele>190</ele>
        <time>2014-01-26T10:47:07Z</time>
      </trkpt>
      <trkpt lat="49.17198" lon="7.02312">
        <ele>191</ele>
        <time>2014-01-26T10:47:12Z</time>
      </trkpt>
      <trkpt lat="49.1719" lon="7.0231">
        <ele>191</ele>
        <time>2014-01-26T10:47:18Z</time>
      </trkpt>
      <trkpt lat="49.17181" lon="7.02307">
        <ele>193</ele>
        <time>2014-01-26T10:47:23Z</time>
      </trkpt>
      <trkpt lat="49.17172" lon="7.02306">
        <ele>195</ele>
        <time>2014-01-26T10:47:28Z</time>
      </trkpt>
      <trkpt lat="49.17165" lon="7.02305">
        <ele>197</ele>
        <time>2014-01-26T10:47:32Z</time>
      </trkpt>
      <trkpt lat="49.17157" lon="7.02303">
        <ele>200</ele>
        <time>2014-01-26T10:47:36Z</time>
      </trkpt>
      <trkpt lat="49.17147" lon="7.02302">
        <ele>203</ele>
        <time>2014-01-26T10:47:41Z</time>
      </trkpt>
      <trkpt lat="49.1714" lon="7.02301">
        <ele>207</ele>
        <time>2014-01-26T10:47:44Z</time>
      </trkpt>
      <trkpt lat="49.17132" lon="7.02298">
        <ele>208</ele>
        <time>2014-01-26T10:47:48Z</time>
      </trkpt>
      <trkpt lat="49.17124" lon="7.02297">
        <ele>211</ele>
        <time>2014-01-26T10:47:53Z</time>
      </trkpt>
      <trkpt lat="49.17115" lon="7.02294">
        <ele>212</ele>
        <time>2014-01-26T10:47:58Z</time>
      </trkpt>
      <trkpt lat="49.17106" lon="7.02291">
        <ele>214</ele>
        <time>2014-01-26T10:48:02Z</time>
      </trkpt>
      <trkpt lat="49.17098" lon="7.0229">
        <ele>215</ele>
        <time>2014-01-26T10:48:08Z</time>
      </trkpt>
      <trkpt lat="49.1709" lon="7.02287">
        <ele>219</ele>
        <time>2014-01-26T10:48:13Z</time>
      </trkpt>
      <trkpt lat="49.17081" lon="7.02285">
        <ele>220</ele>
        <time>2014-01-26T10:48:18Z</time>
      </trkpt>
      <trkpt lat="49.17073" lon="7.02284">
        <ele>224</ele>
        <time>2014-01-26T10:48:23Z</time>
      </trkpt>
      <trkpt lat="49.17064" lon="7.02284">
        <ele>225</ele>
        <time>2014-01-26T10:48:30Z</time>
      </trkpt>
      <trkpt lat="49.17056" lon="7.02285">
        <ele>228</ele>
        <time>2014-01-26T10:48:35Z</time>
      </trkpt>
      <trkpt lat="49.17047" lon="7.02284">
        <ele>234</ele>
        <time>2014-01-26T10:48:44Z</time>
      </trkpt>
      <trkpt lat="49.17039" lon="7.02283">
        <ele>236</ele>
        <time>2014-01-26T10:48:49Z</time>
      </trkpt>
      <trkpt lat="49.17031" lon="7.0228">
        <ele>237</ele>
        <time>2014-01-26T10:48:55Z</time>
      </trkpt>
      <trkpt lat="49.17024" lon="7.02277">
        <ele>236</ele>
        <time>2014-01-26T10:49:00Z</time>
      </trkpt>
      <trkpt lat="49.17015" lon="7.02275">
        <ele>239</ele>
        <time>2014-01-26T10:49:07Z</time>
      </trkpt>
      <trkpt lat="49.17007" lon="7.02274">
        <ele>240</ele>
        <time>2014-01-26T10:49:12Z</time>
      </trkpt>
      <trkpt lat="49.16999" lon="7.0227">
        <ele>242</ele>
        <time>2014-01-26T10:49:16Z</time>
      </trkpt>
      <trkpt lat="49.16991" lon="7.02267">
        <ele>242</ele>
        <time>2014-01-26T10:49:23Z</time>
      </trkpt>
      <trkpt lat="49.16983" lon="7.02265">
        <ele>241</ele>
        <time>2014-01-26T10:49:29Z</time>
      </trkpt>
      <trkpt lat="49.16975" lon="7.02263">
        <ele>243</ele>
        <time>2014-01-26T10:49:35Z</time>
      </trkpt>
      <trkpt lat="49.16967" lon="7.02261">
        <ele>243</ele>
        <time>2014-01-26T10:49:41Z</time>
      </trkpt>
      <trkpt lat="49.16959" lon="7.02258">
        <ele>245</ele>
        <time>2014-01-26T10:49:47Z</time>
      </trkpt>
      <trkpt lat="49.16951" lon="7.0226">
        <ele>245</ele>
        <time>2014-01-26T10:49:53Z</time>
      </trkpt>
      <trkpt lat="49.16942" lon="7.02261">
        <ele>248</ele>
        <time>2014-01-26T10:49:59Z</time>
      </trkpt>
      <trkpt lat="49.16934" lon="7.02265">
        <ele>246</ele>
        <time>2014-01-26T10:50:06Z</time>
      </trkpt>
      <trkpt lat="49.16926" lon="7.02267">
        <ele>246</ele>
        <time>2014-01-26T10:50:13Z</time>
      </trkpt>
      <trkpt lat="49.16918" lon="7.0227">
        <ele>246</ele>
        <time>2014-01-26T10:50:19Z</time>
      </trkpt>
      <trkpt lat="49.1691" lon="7.02274">
        <ele>248</ele>
        <time>2014-01-26T10:50:26Z</time>
      </trkpt>
      <trkpt lat="49.16902" lon="7.02278">
        <ele>247</ele>
        <time>2014-01-26T10:50:35Z</time>
      </trkpt>
      <trkpt lat="49.16893" lon="7.02282">
        <ele>249</ele>
        <time>2014-01-26T10:50:42Z</time>
      </trkpt>
      <trkpt lat="49.16885" lon="7.02285">
        <ele>249</ele>
        <time>2014-01-26T10:50:48Z</time>
      </trkpt>
      <trkpt lat="49.16879" lon="7.02289">
        <ele>249</ele>
        <time>2014-01-26T10:50:53Z</time>
      </trkpt>
      <trkpt lat="49.16871" lon="7.02291">
        <ele>249</ele>
        <time>2014-01-26T10:50:59Z</time>
      </trkpt>
      <trkpt lat="49.16864" lon="7.02296">
        <ele>249</ele>
        <time>2014-01-26T10:51:04Z</time>
      </trkpt>
      <trkpt lat="49.16856" lon="7.02299">
        <ele>249</ele>
        <time>2014-01-26T10:51:11Z</time>
      </trkpt>
      <trkpt lat="49.16848" lon="7.02299">
        <ele>248</ele>
        <time>2014-01-26T10:51:17Z</time>
      </trkpt>
      <trkpt lat="49.1684" lon="7.02303">
        <ele>248</ele>
        <time>2014-01-26T10:51:23Z</time>
      </trkpt>
      <trkpt lat="49.16832" lon="7.02307">
        <ele>248</ele>
        <time>2014-01-26T10:51:30Z</time>
      </trkpt>
      <trkpt lat="49.16823" lon="7.02309">
        <ele>245</ele>
        <time>2014-01-26T10:51:38Z</time>
      </trkpt>
      <trkpt lat="49.16815" lon="7.02313">
        <ele>246</ele>
        <time>2014-01-26T10:51:44Z</time>
      </trkpt>
      <trkpt lat="49.16808" lon="7.02317">
        <ele>245</ele>
        <time>2014-01-26T10:51:50Z</time>
      </trkpt>
      <trkpt lat="49.16801" lon="7.02324">
        <ele>244</ele>
        <time>2014-01-26T10:51:56Z</time>
      </trkpt>
      <trkpt lat="49.16792" lon="7.02327">
        <ele>247</ele>
        <time>2014-01-26T10:52:02Z</time>
      </trkpt>
      <trkpt lat="49.16785" lon="7.0233">
        <ele>247</ele>
        <time>2014-01-26T10:52:08Z</time>
      </trkpt>
      <trkpt lat="49.16778" lon="7.02333">
        <ele>248</ele>
        <time>2014-01-26T10:52:13Z</time>
      </trkpt>
      <trkpt lat="49.16771" lon="7.02337">
        <ele>249</ele>
        <time>2014-01-26T10:52:20Z</time>
      </trkpt>
      <trkpt lat="49.16763" lon="7.02339">
        <ele>248</ele>
        <time>2014-01-26T10:52:26Z</time>
      </trkpt>
      <trkpt lat="49.16755" lon="7.02343">
        <ele>246</ele>
        <time>2014-01-26T10:52:34Z</time>
      </trkpt>
      <trkpt lat="49.16746" lon="7.02344">
        <ele>247</ele>
        <time>2014-01-26T10:52:41Z</time>
      </trkpt>
      <trkpt lat="49.16739" lon="7.02349">
        <ele>249</ele>
        <time>2014-01-26T10:52:46Z</time>
      </trkpt>
      <trkpt lat="49.16731" lon="7.02353">
        <ele>249</ele>
        <time>2014-01-26T10:52:53Z</time>
      </trkpt>
      <trkpt lat="49.16722" lon="7.02355">
        <ele>248</ele>
        <time>2014-01-26T10:53:00Z</time>
      </trkpt>
      <trkpt lat="49.16714" lon="7.02358">
        <ele>249</ele>
        <time>2014-01-26T10:53:06Z</time>
      </trkpt>
      <trkpt lat="49.16707" lon="7.02362">
        <ele>249</ele>
        <time>2014-01-26T10:53:12Z</time>
      </trkpt>
      <trkpt lat="49.16698" lon="7.02366">
        <ele>252</ele>
        <time>2014-01-26T10:53:18Z</time>
      </trkpt>
      <trkpt lat="49.16691" lon="7.02369">
        <ele>251</ele>
        <time>2014-01-26T10:53:24Z</time>
      </trkpt>
      <trkpt lat="49.16683" lon="7.02373">
        <ele>250</ele>
        <time>2014-01-26T10:53:30Z</time>
      </trkpt>
      <trkpt lat="49.16676" lon="7.02376">
        <ele>251</ele>
        <time>2014-01-26T10:53:38Z</time>
      </trkpt>
      <trkpt lat="49.16667" lon="7.0238">
        <ele>250</ele>
        <time>2014-01-26T10:53:45Z</time>
      </trkpt>
      <trkpt lat="49.16659" lon="7.02382">
        <ele>249</ele>
        <time>2014-01-26T10:53:52Z</time>
      </trkpt>
      <trkpt lat="49.16651" lon="7.02385">
        <ele>250</ele>
        <time>2014-01-26T10:53:58Z</time>
      </trkpt>
      <trkpt lat="49.16643" lon="7.02389">
        <ele>251</ele>
        <time>2014-01-26T10:54:04Z</time>
      </trkpt>
      <trkpt lat="49.16634" lon="7.02392">
        <ele>252</ele>
        <time>2014-01-26T10:54:11Z</time>
      </trkpt>
      <trkpt lat="49.16625" lon="7.02394">
        <ele>250</ele>
        <time>2014-01-26T10:54:18Z</time>
      </trkpt>
      <trkpt lat="49.16618" lon="7.02397">
        <ele>250</ele>
        <time>2014-01-26T10:54:24Z</time>
      </trkpt>
      <trkpt lat="49.1661" lon="7.024">
        <ele>250</ele>
        <time>2014-01-26T10:54:31Z</time>
      </trkpt>
      <trkpt lat="49.16603" lon="7.02405">
        <ele>248</ele>
        <time>2014-01-26T10:54:38Z</time>
      </trkpt>
      <trkpt lat="49.16595" lon="7.02409">
        <ele>248</ele>
        <time>2014-01-26T10:54:44Z</time>
      </trkpt>
      <trkpt lat="49.16587" lon="7.02413">
        <ele>250</ele>
        <time>2014-01-26T10:54:50Z</time>
      </trkpt>
      <trkpt lat="49.1658" lon="7.02417">
        <ele>249</ele>
        <time>2014-01-26T10:54:57Z</time>
      </trkpt>
      <trkpt lat="49.16572" lon="7.0242">
        <ele>248</ele>
        <time>2014-01-26T10:55:05Z</time>
      </trkpt>
      <trkpt lat="49.16563" lon="7.02422">
        <ele>248</ele>
        <time>2014-01-26T10:55:13Z</time>
      </trkpt>
      <trkpt lat="49.16554" lon="7.02427">
        <ele>248</ele>
        <time>2014-01-26T10:55:18Z</time>
      </trkpt>
      <trkpt lat="49.16546" lon="7.02429">
        <ele>249</ele>
        <time>2014-01-26T10:55:24Z</time>
      </trkpt>
      <trkpt lat="49.16539" lon="7.02434">
        <ele>248</ele>
        <time>2014-01-26T10:55:32Z</time>
      </trkpt>
      <trkpt lat="49.16531" lon="7.02438">
        <ele>249</ele>
        <time>2014-01-26T10:55:39Z</time>
      </trkpt>
      <trkpt lat="49.16526" lon="7.02448">
        <ele>249</ele>
        <time>2014-01-26T10:55:52Z</time>
      </trkpt>
      <trkpt lat="49.16519" lon="7.02455">
        <ele>249</ele>
        <time>2014-01-26T10:56:00Z</time>
      </trkpt>
      <trkpt lat="49.16513" lon="7.02465">
        <ele>249</ele>
        <time>2014-01-26T10:56:06Z</time>
      </trkpt>
      <trkpt lat="49.16516" lon="7.02478">
        <ele>248</ele>
        <time>2014-01-26T10:56:14Z</time>
      </trkpt>
      <trkpt lat="49.16519" lon="7.02489">
        <ele>249</ele>
        <time>2014-01-26T10:56:21Z</time>
      </trkpt>
      <trkpt lat="49.16523" lon="7.02501">
        <ele>246</ele>
        <time>2014-01-26T10:56:28Z</time>
      </trkpt>
      <trkpt lat="49.16527" lon="7.02512">
        <ele>243</ele>
        <time>2014-01-26T10:56:39Z</time>
      </trkpt>
      <trkpt lat="49.16531" lon="7.02523">
        <ele>243</ele>
        <time>2014-01-26T10:56:45Z</time>
      </trkpt>
      <trkpt lat="49.16535" lon="7.02535">
        <ele>243</ele>
        <time>2014-01-26T10:56:52Z</time>
      </trkpt>
      <trkpt lat="49.16539" lon="7.02546">
        <ele>242</ele>
        <time>2014-01-26T10:56:59Z</time>
      </trkpt>
      <trkpt lat="49.16543" lon="7.02558">
        <ele>241</ele>
        <time>2014-01-26T10:57:07Z</time>
      </trkpt>
      <trkpt lat="49.16547" lon="7.0257">
        <ele>239</ele>
        <time>2014-01-26T10:57:15Z</time>
      </trkpt>
      <trkpt lat="49.1655" lon="7.02583">
        <ele>237</ele>
        <time>2014-01-26T10:57:24Z</time>
      </trkpt>
      <trkpt lat="49.16554" lon="7.02594">
        <ele>235</ele>
        <time>2014-01-26T10:57:32Z</time>
      </trkpt>
      <trkpt lat="49.16557" lon="7.02606">
        <ele>234</ele>
        <time>2014-01-26T10:57:39Z</time>
      </trkpt>
      <trkpt lat="49.1656" lon="7.02619">
        <ele>235</ele>
        <time>2014-01-26T10:57:46Z</time>
      </trkpt>
      <trkpt lat="49.16564" lon="7.0263">
        <ele>230</ele>
        <time>2014-01-26T10:57:57Z</time>
      </trkpt>
      <trkpt lat="49.16568" lon="7.02641">
        <ele>229</ele>
        <time>2014-01-26T10:58:05Z</time>
      </trkpt>
      <trkpt lat="49.16572" lon="7.02653">
        <ele>230</ele>
        <time>2014-01-26T10:58:13Z</time>
      </trkpt>
      <trkpt lat="49.16574" lon="7.02666">
        <ele>227</ele>
        <time>2014-01-26T10:58:23Z</time>
      </trkpt>
      <trkpt lat="49.16578" lon="7.02675">
        <ele>224</ele>
        <time>2014-01-26T10:58:30Z</time>
      </trkpt>
      <trkpt lat="49.16581" lon="7.02686">
        <ele>227</ele>
        <time>2014-01-26T10:58:35Z</time>
      </trkpt>
      <trkpt lat="49.16582" lon="7.02699">
        <ele>229</ele>
        <time>2014-01-26T10:58:41Z</time>
      </trkpt>
      <trkpt lat="49.16585" lon="7.0271">
        <ele>232</ele>
        <time>2014-01-26T10:58:47Z</time>
      </trkpt>
      <trkpt lat="49.16588" lon="7.02721">
        <ele>232</ele>
        <time>2014-01-26T10:58:53Z</time>
      </trkpt>
      <trkpt lat="49.16592" lon="7.02733">
        <ele>233</ele>
        <time>2014-01-26T10:58:59Z</time>
      </trkpt>
      <trkpt lat="49.16596" lon="7.02745">
        <ele>226</ele>
        <time>2014-01-26T10:59:11Z</time>
      </trkpt>
      <trkpt lat="49.16599" lon="7.02756">
        <ele>221</ele>
        <time>2014-01-26T10:59:19Z</time>
      </trkpt>
      <trkpt lat="49.16603" lon="7.02769">
        <ele>221</ele>
        <time>2014-01-26T10:59:25Z</time>
      </trkpt>
      <trkpt lat="49.16608" lon="7.02779">
        <ele>217</ele>
        <time>2014-01-26T10:59:36Z</time>
      </trkpt>
      <trkpt lat="49.16613" lon="7.02788">
        <ele>213</ele>
        <time>2014-01-26T10:59:44Z</time>
      </trkpt>
      <trkpt lat="49.16614" lon="7.028">
        <ele>212</ele>
        <time>2014-01-26T10:59:51Z</time>
      </trkpt>
      <trkpt lat="49.16615" lon="7.02812">
        <ele>213</ele>
        <time>2014-01-26T10:59:58Z</time>
      </trkpt>
      <trkpt lat="49.16618" lon="7.02823">
        <ele>212</ele>
        <time>2014-01-26T11:00:05Z</time>
      </trkpt>
      <trkpt lat="49.1662" lon="7.02835">
        <ele>212</ele>
        <time>2014-01-26T11:00:12Z</time>
      </trkpt>
      <trkpt lat="49.16622" lon="7.02847">
        <ele>210</ele>
        <time>2014-01-26T11:00:18Z</time>
      </trkpt>
      <trkpt lat="49.16624" lon="7.02858">
        <ele>211</ele>
        <time>2014-01-26T11:00:23Z</time>
      </trkpt>
      <trkpt lat="49.16626" lon="7.02871">
        <ele>213</ele>
        <time>2014-01-26T11:00:29Z</time>
      </trkpt>
      <trkpt lat="49.16627" lon="7.02884">
        <ele>216</ele>
        <time>2014-01-26T11:00:37Z</time>
      </trkpt>
      <trkpt lat="49.16627" lon="7.02895">
        <ele>217</ele>
        <time>2014-01-26T11:00:43Z</time>
      </trkpt>
      <trkpt lat="49.16626" lon="7.02906">
        <ele>217</ele>
        <time>2014-01-26T11:00:49Z</time>
      </trkpt>
      <trkpt lat="49.16622" lon="7.02915">
        <ele>221</ele>
        <time>2014-01-26T11:00:53Z</time>
      </trkpt>
      <trkpt lat="49.16614" lon="7.02923">
        <ele>223</ele>
        <time>2014-01-26T11:01:00Z</time>
      </trkpt>
      <trkpt lat="49.16608" lon="7.0293">
        <ele>225</ele>
        <time>2014-01-26T11:01:06Z</time>
      </trkpt>
      <trkpt lat="49.16602" lon="7.02937">
        <ele>228</ele>
        <time>2014-01-26T11:01:12Z</time>
      </trkpt>
      <trkpt lat="49.16595" lon="7.02943">
        <ele>229</ele>
        <time>2014-01-26T11:01:18Z</time>
      </trkpt>
      <trkpt lat="49.16587" lon="7.02948">
        <ele>231</ele>
        <time>2014-01-26T11:01:24Z</time>
      </trkpt>
      <trkpt lat="49.1658" lon="7.02953">
        <ele>234</ele>
        <time>2014-01-26T11:01:30Z</time>
      </trkpt>
      <trkpt lat="49.16571" lon="7.02957">
        <ele>235</ele>
        <time>2014-01-26T11:01:38Z</time>
      </trkpt>
      <trkpt lat="49.16564" lon="7.0296">
        <ele>234</ele>
        <time>2014-01-26T11:01:44Z</time>
      </trkpt>
      <trkpt lat="49.16555" lon="7.02964">
        <ele>234</ele>
        <time>2014-01-26T11:01:51Z</time>
      </trkpt>
      <trkpt lat="49.16547" lon="7.02967">
        <ele>234</ele>
        <time>2014-01-26T11:01:58Z</time>
      </trkpt>
      <trkpt lat="49.16539" lon="7.02972">
        <ele>234</ele>
        <time>2014-01-26T11:02:05Z</time>
      </trkpt>
      <trkpt lat="49.1653" lon="7.02977">
        <ele>235</ele>
        <time>2014-01-26T11:02:12Z</time>
      </trkpt>
      <trkpt lat="49.16523" lon="7.02982">
        <ele>237</ele>
        <time>2014-01-26T11:02:18Z</time>
      </trkpt>
      <trkpt lat="49.16515" lon="7.02987">
        <ele>237</ele>
        <time>2014-01-26T11:02:25Z</time>
      </trkpt>
      <trkpt lat="49.16508" lon="7.0299">
        <ele>235</ele>
        <time>2014-01-26T11:02:32Z</time>
      </trkpt>
      <trkpt lat="49.165" lon="7.02993">
        <ele>236</ele>
        <time>2014-01-26T11:02:39Z</time>
      </trkpt>
      <trkpt lat="49.16492" lon="7.02998">
        <ele>236</ele>
        <time>2014-01-26T11:02:45Z</time>
      </trkpt>
      <trkpt lat="49.16484" lon="7.03002">
        <ele>236</ele>
        <time>2014-01-26T11:02:52Z</time>
      </trkpt>
      <trkpt lat="49.16477" lon="7.03009">
        <ele>238</ele>
        <time>2014-01-26T11:02:58Z</time>
      </trkpt>
      <trkpt lat="49.1647" lon="7.03013">
        <ele>236</ele>
        <time>2014-01-26T11:03:05Z</time>
      </trkpt>
      <trkpt lat="49.16461" lon="7.03014">
        <ele>234</ele>
        <time>2014-01-26T11:03:13Z</time>
      </trkpt>
      <trkpt lat="49.16453" lon="7.0302">
        <ele>235</ele>
        <time>2014-01-26T11:03:20Z</time>
      </trkpt>
      <trkpt lat="49.16445" lon="7.03023">
        <ele>235</ele>
        <time>2014-01-26T11:03:27Z</time>
      </trkpt>
      <trkpt lat="49.16437" lon="7.03025">
        <ele>235</ele>
        <time>2014-01-26T11:03:34Z</time>
      </trkpt>
      <trkpt lat="49.16431" lon="7.03023">
        <ele>236</ele>
        <time>2014-01-26T11:03:39Z</time>
      </trkpt>
      <trkpt lat="49.16422" lon="7.03022">
        <ele>236</ele>
        <time>2014-01-26T11:03:46Z</time>
      </trkpt>
      <trkpt lat="49.16413" lon="7.03025">
        <ele>237</ele>
        <time>2014-01-26T11:03:53Z</time>
      </trkpt>
      <trkpt lat="49.16406" lon="7.03031">
        <ele>238</ele>
        <time>2014-01-26T11:03:59Z</time>
      </trkpt>
      <trkpt lat="49.164" lon="7.03041">
        <ele>239</ele>
        <time>2014-01-26T11:04:05Z</time>
      </trkpt>
      <trkpt lat="49.16394" lon="7.03048">
        <ele>238</ele>
        <time>2014-01-26T11:04:12Z</time>
      </trkpt>
      <trkpt lat="49.16386" lon="7.03052">
        <ele>236</ele>
        <time>2014-01-26T11:04:19Z</time>
      </trkpt>
      <trkpt lat="49.16378" lon="7.03057">
        <ele>235</ele>
        <time>2014-01-26T11:04:26Z</time>
      </trkpt>
      <trkpt lat="49.16371" lon="7.03063">
        <ele>235</ele>
        <time>2014-01-26T11:04:32Z</time>
      </trkpt>
      <trkpt lat="49.16363" lon="7.03065">
        <ele>236</ele>
        <time>2014-01-26T11:04:38Z</time>
      </trkpt>
      <trkpt lat="49.16355" lon="7.0307">
        <ele>236</ele>
        <time>2014-01-26T11:04:45Z</time>
      </trkpt>
      <trkpt lat="49.16347" lon="7.03073">
        <ele>238</ele>
        <time>2014-01-26T11:04:52Z</time>
      </trkpt>
      <trkpt lat="49.16339" lon="7.03078">
        <ele>239</ele>
        <time>2014-01-26T11:04:58Z</time>
      </trkpt>
      <trkpt lat="49.1633" lon="7.03081">
        <ele>237</ele>
        <time>2014-01-26T11:05:06Z</time>
      </trkpt>
      <trkpt lat="49.16322" lon="7.03083">
        <ele>236</ele>
        <time>2014-01-26T11:05:15Z</time>
      </trkpt>
      <trkpt lat="49.16314" lon="7.03084">
        <ele>239</ele>
        <time>2014-01-26T11:05:22Z</time>
      </trkpt>
      <trkpt lat="49.16307" lon="7.03091">
        <ele>238</ele>
        <time>2014-01-26T11:05:27Z</time>
      </trkpt>
      <trkpt lat="49.16299" lon="7.03094">
        <ele>236</ele>
        <time>2014-01-26T11:05:34Z</time>
      </trkpt>
      <trkpt lat="49.16291" lon="7.03096">
        <ele>233</ele>
        <time>2014-01-26T11:05:42Z</time>
      </trkpt>
      <trkpt lat="49.16283" lon="7.031">
        <ele>233</ele>
        <time>2014-01-26T11:05:50Z</time>
      </trkpt>
      <trkpt lat="49.16276" lon="7.03106">
        <ele>234</ele>
        <time>2014-01-26T11:05:55Z</time>
      </trkpt>
      <trkpt lat="49.16269" lon="7.03112">
        <ele>236</ele>
        <time>2014-01-26T11:06:00Z</time>
      </trkpt>
      <trkpt lat="49.16261" lon="7.03116">
        <ele>233</ele>
        <time>2014-01-26T11:06:08Z</time>
      </trkpt>
      <trkpt lat="49.16253" lon="7.03118">
        <ele>230</ele>
        <time>2014-01-26T11:06:16Z</time>
      </trkpt>
      <trkpt lat="49.16245" lon="7.03122">
        <ele>231</ele>
        <time>2014-01-26T11:06:22Z</time>
      </trkpt>
      <trkpt lat="49.16239" lon="7.03126">
        <ele>231</ele>
        <time>2014-01-26T11:06:27Z</time>
      </trkpt>
      <trkpt lat="49.16232" lon="7.03132">
        <ele>234</ele>
        <time>2014-01-26T11:06:32Z</time>
      </trkpt>
      <trkpt lat="49.16223" lon="7.03136">
        <ele>235</ele>
        <time>2014-01-26T11:06:38Z</time>
      </trkpt>
      <trkpt lat="49.16215" lon="7.0314">
        <ele>233</ele>
        <time>2014-01-26T11:06:46Z</time>
      </trkpt>
      <trkpt lat="49.16207" lon="7.03143">
        <ele>234</ele>
        <time>2014-01-26T11:06:52Z</time>
      </trkpt>
      <trkpt lat="49.16199" lon="7.03148">
        <ele>234</ele>
        <time>2014-01-26T11:06:59Z</time>
      </trkpt>
      <trkpt lat="49.16192" lon="7.03149">
        <ele>233</ele>
        <time>2014-01-26T11:07:06Z</time>
      </trkpt>
      <trkpt lat="49.16184" lon="7.03153">
        <ele>233</ele>
        <time>2014-01-26T11:07:12Z</time>
      </trkpt>
      <trkpt lat="49.16176" lon="7.03155">
        <ele>232</ele>
        <time>2014-01-26T11:07:18Z</time>
      </trkpt>
      <trkpt lat="49.16168" lon="7.03158">
        <ele>232</ele>
        <time>2014-01-26T11:07:24Z</time>
      </trkpt>
      <trkpt lat="49.16161" lon="7.03162">
        <ele>234</ele>
        <time>2014-01-26T11:07:29Z</time>
      </trkpt>
      <trkpt lat="49.16153" lon="7.03165">
        <ele>236</ele>
        <time>2014-01-26T11:07:36Z</time>
      </trkpt>
      <trkpt lat="49.16145" lon="7.03161">
        <ele>229</ele>
        <time>2014-01-26T11:07:45Z</time>
      </trkpt>
      <trkpt lat="49.16137" lon="7.03164">
        <ele>227</ele>
        <time>2014-01-26T11:07:52Z</time>
      </trkpt>
      <trkpt lat="49.16128" lon="7.03165">
        <ele>229</ele>
        <time>2014-01-26T11:07:59Z</time>
      </trkpt>
      <trkpt lat="49.16119" lon="7.03166">
        <ele>231</ele>
        <time>2014-01-26T11:08:06Z</time>
      </trkpt>
      <trkpt lat="49.16111" lon="7.03168">
        <ele>234</ele>
        <time>2014-01-26T11:08:12Z</time>
      </trkpt>
      <trkpt lat="49.16104" lon="7.03167">
        <ele>233</ele>
        <time>2014-01-26T11:08:18Z</time>
      </trkpt>
      <trkpt lat="49.16096" lon="7.0317">
        <ele>235</ele>
        <time>2014-01-26T11:08:23Z</time>
      </trkpt>
      <trkpt lat="49.16089" lon="7.0317">
        <ele>237</ele>
        <time>2014-01-26T11:08:30Z</time>
      </trkpt>
      <trkpt lat="49.1608" lon="7.03171">
        <ele>235</ele>
        <time>2014-01-26T11:08:37Z</time>
      </trkpt>
      <trkpt lat="49.16071" lon="7.03171">
        <ele>235</ele>
        <time>2014-01-26T11:08:45Z</time>
      </trkpt>
      <trkpt lat="49.16063" lon="7.03175">
        <ele>236</ele>
        <time>2014-01-26T11:08:53Z</time>
      </trkpt>
      <trkpt lat="49.16054" lon="7.03175">
        <ele>237</ele>
        <time>2014-01-26T11:09:00Z</time>
      </trkpt>
      <trkpt lat="49.16047" lon="7.0317">
        <ele>231</ele>
        <time>2014-01-26T11:09:11Z</time>
      </trkpt>
      <trkpt lat="49.16038" lon="7.03168">
        <ele>233</ele>
        <time>2014-01-26T11:09:17Z</time>
      </trkpt>
      <trkpt lat="49.16032" lon="7.0316">
        <ele>230</ele>
        <time>2014-01-26T11:09:25Z</time>
      </trkpt>
      <trkpt lat="49.16025" lon="7.03156">
        <ele>228</ele>
        <time>2014-01-26T11:09:33Z</time>
      </trkpt>
      <trkpt lat="49.16015" lon="7.03159">
        <ele>233</ele>
        <time>2014-01-26T11:09:38Z</time>
      </trkpt>
      <trkpt lat="49.16007" lon="7.03156">
        <ele>233</ele>
        <time>2014-01-26T11:09:46Z</time>
      </trkpt>
      <trkpt lat="49.15999" lon="7.03152">
        <ele>230</ele>
        <time>2014-01-26T11:09:54Z</time>
      </trkpt>
      <trkpt lat="49.1599" lon="7.03147">
        <ele>230</ele>
        <time>2014-01-26T11:10:05Z</time>
      </trkpt>
      <trkpt lat="49.15982" lon="7.03146">
        <ele>226</ele>
        <time>2014-01-26T11:10:12Z</time>
      </trkpt>
      <trkpt lat="49.15974" lon="7.03147">
        <ele>226</ele>
        <time>2014-01-26T11:10:25Z</time>
      </trkpt>
      <trkpt lat="49.15965" lon="7.03143">
        <ele>224</ele>
        <time>2014-01-26T11:10:35Z</time>
      </trkpt>
      <trkpt lat="49.15957" lon="7.0314">
        <ele>223</ele>
        <time>2014-01-26T11:10:45Z</time>
      </trkpt>
      <trkpt lat="49.15949" lon="7.03138">
        <ele>221</ele>
        <time>2014-01-26T11:10:53Z</time>
      </trkpt>
      <trkpt lat="49.1594" lon="7.03136">
        <ele>220</ele>
        <time>2014-01-26T11:11:05Z</time>
      </trkpt>
      <trkpt lat="49.15932" lon="7.03133">
        <ele>220</ele>
        <time>2014-01-26T11:11:11Z</time>
      </trkpt>
      <trkpt lat="49.15924" lon="7.03129">
        <ele>224</ele>
        <time>2014-01-26T11:11:16Z</time>
      </trkpt>
      <trkpt lat="49.15916" lon="7.03123">
        <ele>219</ele>
        <time>2014-01-26T11:11:26Z</time>
      </trkpt>
      <trkpt lat="49.15907" lon="7.03123">
        <ele>220</ele>
        <time>2014-01-26T11:11:33Z</time>
      </trkpt>
      <trkpt lat="49.15899" lon="7.03119">
        <ele>223</ele>
        <time>2014-01-26T11:11:40Z</time>
      </trkpt>
      <trkpt lat="49.1589" lon="7.03116">
        <ele>219</ele>
        <time>2014-01-26T11:11:48Z</time>
      </trkpt>
      <trkpt lat="49.15882" lon="7.03114">
        <ele>217</ele>
        <time>2014-01-26T11:11:58Z</time>
      </trkpt>
      <trkpt lat="49.15874" lon="7.03112">
        <ele>219</ele>
        <time>2014-01-26T11:12:08Z</time>
      </trkpt>
      <trkpt lat="49.15866" lon="7.03108">
        <ele>218</ele>
        <time>2014-01-26T11:12:18Z</time>
      </trkpt>
      <trkpt lat="49.15857" lon="7.03107">
        <ele>216</ele>
        <time>2014-01-26T11:12:32Z</time>
      </trkpt>
      <trkpt lat="49.15848" lon="7.03107">
        <ele>215</ele>
        <time>2014-01-26T11:12:38Z</time>
      </trkpt>
      <trkpt lat="49.1584" lon="7.03105">
        <ele>207</ele>
        <time>2014-01-26T11:12:46Z</time>
      </trkpt>
      <trkpt lat="49.15832" lon="7.03104">
        <ele>206</ele>
        <time>2014-01-26T11:12:52Z</time>
      </trkpt>
      <trkpt lat="49.15824" lon="7.031">
        <ele>206</ele>
        <time>2014-01-26T11:12:59Z</time>
      </trkpt>
      <trkpt lat="49.15817" lon="7.03095">
        <ele>208</ele>
        <time>2014-01-26T11:13:04Z</time>
      </trkpt>
      <trkpt lat="49.15809" lon="7.0309">
        <ele>207</ele>
        <time>2014-01-26T11:13:15Z</time>
      </trkpt>
      <trkpt lat="49.15801" lon="7.03089">
        <ele>208</ele>
        <time>2014-01-26T11:13:20Z</time>
      </trkpt>
      <trkpt lat="49.15792" lon="7.03087">
        <ele>207</ele>
        <time>2014-01-26T11:13:26Z</time>
      </trkpt>
      <trkpt lat="49.15786" lon="7.03084">
        <ele>206</ele>
        <time>2014-01-26T11:13:35Z</time>
      </trkpt>
      <trkpt lat="49.15779" lon="7.03079">
        <ele>204</ele>
        <time>2014-01-26T11:13:40Z</time>
      </trkpt>
      <trkpt lat="49.15771" lon="7.03077">
        <ele>203</ele>
        <time>2014-01-26T11:13:49Z</time>
      </trkpt>
      <trkpt lat="49.15761" lon="7.03077">
        <ele>205</ele>
        <time>2014-01-26T11:13:54Z</time>
      </trkpt>
      <trkpt lat="49.15752" lon="7.03079">
        <ele>208</ele>
        <time>2014-01-26T11:13:59Z</time>
      </trkpt>
      <trkpt lat="49.15744" lon="7.03081">
        <ele>209</ele>
        <time>2014-01-26T11:14:04Z</time>
      </trkpt>
      <trkpt lat="49.15735" lon="7.03079">
        <ele>213</ele>
        <time>2014-01-26T11:14:08Z</time>
      </trkpt>
      <trkpt lat="49.15727" lon="7.03079">
        <ele>215</ele>
        <time>2014-01-26T11:14:12Z</time>
      </trkpt>
      <trkpt lat="49.15719" lon="7.03078">
        <ele>219</ele>
        <time>2014-01-26T11:14:17Z</time>
      </trkpt>
      <trkpt lat="49.15708" lon="7.03078">
        <ele>224</ele>
        <time>2014-01-26T11:14:22Z</time>
      </trkpt>
      <trkpt lat="49.15701" lon="7.03072">
        <ele>231</ele>
        <time>2014-01-26T11:14:27Z</time>
      </trkpt>
      <trkpt lat="49.15694" lon="7.03063">
        <ele>228</ele>
        <time>2014-01-26T11:14:35Z</time>
      </trkpt>
      <trkpt lat="49.15691" lon="7.03051">
        <ele>225</ele>
        <time>2014-01-26T11:14:48Z</time>
      </trkpt>
      <trkpt lat="49.15686" lon="7.03041">
        <ele>225</ele>
        <time>2014-01-26T11:14:55Z</time>
      </trkpt>
      <trkpt lat="49.15691" lon="7.0303">
        <ele>221</ele>
        <time>2014-01-26T11:15:08Z</time>
      </trkpt>
      <trkpt lat="49.15699" lon="7.0303">
        <ele>212</ele>
        <time>2014-01-26T11:15:18Z</time>
      </trkpt>
      <trkpt lat="49.15707" lon="7.03024">
        <ele>214</ele>
        <time>2014-01-26T11:15:27Z</time>
      </trkpt>
      <trkpt lat="49.15715" lon="7.03027">
        <ele>210</ele>
        <time>2014-01-26T11:15:34Z</time>
      </trkpt>
      <trkpt lat="49.15723" lon="7.03023">
        <ele>211</ele>
        <time>2014-01-26T11:15:40Z</time>
      </trkpt>
      <trkpt lat="49.15725" lon="7.0301">
        <ele>215</ele>
        <time>2014-01-26T11:15:45Z</time>
      </trkpt>
      <trkpt lat="49.15728" lon="7.02997">
        <ele>224</ele>
        <time>2014-01-26T11:15:52Z</time>
      </trkpt>
      <trkpt lat="49.15733" lon="7.02988">
        <ele>224</ele>
        <time>2014-01-26T11:15:57Z</time>
      </trkpt>
      <trkpt lat="49.15742" lon="7.02983">
        <ele>227</ele>
        <time>2014-01-26T11:16:01Z</time>
      </trkpt>
      <trkpt lat="49.15748" lon="7.02978">
        <ele>229</ele>
        <time>2014-01-26T11:16:10Z</time>
      </trkpt>
      <trkpt lat="49.15757" lon="7.02976">
        <ele>228</ele>
        <time>2014-01-26T11:16:18Z</time>
      </trkpt>
      <trkpt lat="49.15766" lon="7.02973">
        <ele>229</ele>
        <time>2014-01-26T11:16:29Z</time>
      </trkpt>
      <trkpt lat="49.15774" lon="7.0297">
        <ele>235</ele>
        <time>2014-01-26T11:16:34Z</time>
      </trkpt>
      <trkpt lat="49.15783" lon="7.02967">
        <ele>241</ele>
        <time>2014-01-26T11:16:40Z</time>
      </trkpt>
      <trkpt lat="49.15791" lon="7.02962">
        <ele>249</ele>
        <time>2014-01-26T11:16:46Z</time>
      </trkpt>
      <trkpt lat="49.15798" lon="7.02956">
        <ele>250</ele>
        <time>2014-01-26T11:16:52Z</time>
      </trkpt>
      <trkpt lat="49.15806" lon="7.02957">
        <ele>249</ele>
        <time>2014-01-26T11:16:57Z</time>
      </trkpt>
      <trkpt lat="49.15814" lon="7.02955">
        <ele>250</ele>
        <time>2014-01-26T11:17:03Z</time>
      </trkpt>
      <trkpt lat="49.15821" lon="7.02947">
        <ele>253</ele>
        <time>2014-01-26T11:17:10Z</time>
      </trkpt>
      <trkpt lat="49.15827" lon="7.02939">
        <ele>251</ele>
        <time>2014-01-26T11:17:17Z</time>
      </trkpt>
      <trkpt lat="49.15835" lon="7.02934">
        <ele>246</ele>
        <time>2014-01-26T11:17:26Z</time>
      </trkpt>
      <trkpt lat="49.15844" lon="7.02931">
        <ele>233</ele>
        <time>2014-01-26T11:17:38Z</time>
      </trkpt>
      <trkpt lat="49.15851" lon="7.02926">
        <ele>237</ele>
        <time>2014-01-26T11:17:44Z</time>
      </trkpt>
      <trkpt lat="49.1586" lon="7.02922">
        <ele>244</ele>
        <time>2014-01-26T11:17:50Z</time>
      </trkpt>
      <trkpt lat="49.15867" lon="7.02914">
        <ele>244</ele>
        <time>2014-01-26T11:17:59Z</time>
      </trkpt>
      <trkpt lat="49.15874" lon="7.02912">
        <ele>245</ele>
        <time>2014-01-26T11:18:04Z</time>
      </trkpt>
      <trkpt lat="49.1588" lon="7.02908">
        <ele>247</ele>
        <time>2014-01-26T11:18:09Z</time>
      </trkpt>
      <trkpt lat="49.15888" lon="7.02903">
        <ele>246</ele>
        <time>2014-01-26T11:18:15Z</time>
      </trkpt>
      <trkpt lat="49.15894" lon="7.02894">
        <ele>246</ele>
        <time>2014-01-26T11:18:28Z</time>
      </trkpt>
      <trkpt lat="49.15906" lon="7.02878">
        <ele>245</ele>
        <time>2014-01-26T11:18:33Z</time>
      </trkpt>
      <trkpt lat="49.15911" lon="7.02868">
        <ele>246</ele>
        <time>2014-01-26T11:18:40Z</time>
      </trkpt>
      <trkpt lat="49.15915" lon="7.02857">
        <ele>248</ele>
        <time>2014-01-26T11:18:48Z</time>
      </trkpt>
      <trkpt lat="49.15923" lon="7.02854">
        <ele>250</ele>
        <time>2014-01-26T11:18:53Z</time>
      </trkpt>
      <trkpt lat="49.15924" lon="7.02841">
        <ele>241</ele>
        <time>2014-01-26T11:19:11Z</time>
      </trkpt>
      <trkpt lat="49.15924" lon="7.02828">
        <ele>242</ele>
        <time>2014-01-26T11:19:16Z</time>
      </trkpt>
      <trkpt lat="49.15922" lon="7.02816">
        <ele>244</ele>
        <time>2014-01-26T11:19:25Z</time>
      </trkpt>
      <trkpt lat="49.15913" lon="7.02813">
        <ele>247</ele>
        <time>2014-01-26T11:19:50Z</time>
      </trkpt>
      <trkpt lat="49.15911" lon="7.02825">
        <ele>241</ele>
        <time>2014-01-26T11:20:02Z</time>
      </trkpt>
      <trkpt lat="49.15907" lon="7.02833">
        <ele>243</ele>
        <time>2014-01-26T11:20:50Z</time>
      </trkpt>
      <trkpt lat="49.15906" lon="7.02845">
        <ele>244</ele>
        <time>2014-01-26T11:20:54Z</time>
      </trkpt>
      <trkpt lat="49.15897" lon="7.02853">
        <ele>241</ele>
        <time>2014-01-26T11:20:58Z</time>
      </trkpt>
      <trkpt lat="49.15906" lon="7.02851">
        <ele>247</ele>
        <time>2014-01-26T11:21:59Z</time>
      </trkpt>
      <trkpt lat="49.1591" lon="7.02842">
        <ele>251</ele>
        <time>2014-01-26T11:24:26Z</time>
      </trkpt>
      <trkpt lat="49.15908" lon="7.0283">
        <ele>254</ele>
        <time>2014-01-26T11:24:33Z</time>
      </trkpt>
      <trkpt lat="49.15906" lon="7.02818">
        <ele>277</ele>
        <time>2014-01-26T11:30:09Z</time>
      </trkpt>
      <trkpt lat="49.15906" lon="7.02818">
        <ele>277</ele>
        <time>2014-01-26T11:30:09Z</time>
      </trkpt>
    </trkseg>
  </trk>
</gpx>